<?xml version="1.0" encoding="UTF-8" standalone="no" ?>
<gpx xmlns="http://www.topografix.com/GPX/1/1" xmlns:xsi="http://www.w3.org/2001/XMLSchema-instance" xsi:schemaLocation="http://www.topografix.com/GPX/1/1 http://www.topografix.com/GPX/1/1/gpx.xsd" version="1.1" creator="VisuGPX - https://www.visugpx.com">
  <metadata>
    <name>Val d'Allos - Roche Cline et sommet des Graus</name>
    <desc><![CDATA[Aller/retour depuis Villard Bas jusqu'à Roche Cline puis le sommet des Graus.]]></desc>
  </metadata>
  <trk>
    <name><![CDATA[2022-07-13 08:56]]></name>
    <desc><![CDATA[<p>Heure de départ: 08:57 13 juil. 2022<br/>Heure d'arrivée: 14:28 13 juil. 2022<br/>Distance: 10,9 km (05:31)<br/>Temps déplacement: 04:07<br/>Vitesse moyenne: 1,96 km/h<br/>Vitesse moyenne mouv.: 2,63 km/h<br/>Vitesse Max.: 5,9 km/h<br/>Altitude minimale: 1487 m<br/>Altitude maximale: 2535 m<br/>Vitesse de montée: 833,4 m/h<br/>Vitesse de descente: -1084 m/h<br/>Gain d'altitude: 2654 m<br/>Perte d'altitude: -2516 m<br/>Temps de montée: 03:11<br/>Temps de descente: 02:19<br/></p><hr align="center" width="480" style="height: 2px; width: 517px"/>]]></desc>
    <trkseg>
      <trkpt lat="44.23911" lon="6.64429">
        <ele>1667.2</ele>
        <time>2022-07-13T06:57:01Z</time>
      </trkpt>
      <trkpt lat="44.23919" lon="6.64437">
        <ele>1670.1</ele>
        <time>2022-07-13T06:57:11Z</time>
      </trkpt>
      <trkpt lat="44.23921" lon="6.6445">
        <ele>1672.3</ele>
        <time>2022-07-13T06:57:19Z</time>
      </trkpt>
      <trkpt lat="44.23925" lon="6.64462">
        <ele>1674.4</ele>
        <time>2022-07-13T06:57:28Z</time>
      </trkpt>
      <trkpt lat="44.23928" lon="6.64476">
        <ele>1676.3</ele>
        <time>2022-07-13T06:57:35Z</time>
      </trkpt>
      <trkpt lat="44.23928" lon="6.64489">
        <ele>1677.7</ele>
        <time>2022-07-13T06:57:45Z</time>
      </trkpt>
      <trkpt lat="44.23927" lon="6.64502">
        <ele>1678.6</ele>
        <time>2022-07-13T06:57:53Z</time>
      </trkpt>
      <trkpt lat="44.23919" lon="6.6451">
        <ele>1678.1</ele>
        <time>2022-07-13T06:58:03Z</time>
      </trkpt>
      <trkpt lat="44.23917" lon="6.64524">
        <ele>1678.8</ele>
        <time>2022-07-13T06:58:16Z</time>
      </trkpt>
      <trkpt lat="44.23911" lon="6.64533">
        <ele>1678.8</ele>
        <time>2022-07-13T06:58:22Z</time>
      </trkpt>
      <trkpt lat="44.23906" lon="6.64545">
        <ele>1679.3</ele>
        <time>2022-07-13T06:58:30Z</time>
      </trkpt>
      <trkpt lat="44.23899" lon="6.64555">
        <ele>1679.4</ele>
        <time>2022-07-13T06:58:38Z</time>
      </trkpt>
      <trkpt lat="44.23892" lon="6.64565">
        <ele>1679.2</ele>
        <time>2022-07-13T06:58:47Z</time>
      </trkpt>
      <trkpt lat="44.23886" lon="6.64573">
        <ele>1678.7</ele>
        <time>2022-07-13T06:58:55Z</time>
      </trkpt>
      <trkpt lat="44.23878" lon="6.64579">
        <ele>1677.7</ele>
        <time>2022-07-13T06:59:03Z</time>
      </trkpt>
      <trkpt lat="44.2387" lon="6.64587">
        <ele>1676.9</ele>
        <time>2022-07-13T06:59:13Z</time>
      </trkpt>
      <trkpt lat="44.23862" lon="6.64593">
        <ele>1676</ele>
        <time>2022-07-13T06:59:20Z</time>
      </trkpt>
      <trkpt lat="44.23855" lon="6.64604">
        <ele>1675.7</ele>
        <time>2022-07-13T06:59:28Z</time>
      </trkpt>
      <trkpt lat="44.2385" lon="6.64615">
        <ele>1675.6</ele>
        <time>2022-07-13T06:59:36Z</time>
      </trkpt>
      <trkpt lat="44.23842" lon="6.64623">
        <ele>1675.2</ele>
        <time>2022-07-13T06:59:52Z</time>
      </trkpt>
      <trkpt lat="44.23835" lon="6.64633">
        <ele>1675.5</ele>
        <time>2022-07-13T07:00:00Z</time>
      </trkpt>
      <trkpt lat="44.23828" lon="6.64643">
        <ele>1675.8</ele>
        <time>2022-07-13T07:00:09Z</time>
      </trkpt>
      <trkpt lat="44.23822" lon="6.64654">
        <ele>1676.3</ele>
        <time>2022-07-13T07:00:38Z</time>
      </trkpt>
      <trkpt lat="44.23817" lon="6.64664">
        <ele>1677.1</ele>
        <time>2022-07-13T07:00:47Z</time>
      </trkpt>
      <trkpt lat="44.23808" lon="6.64664">
        <ele>1676.7</ele>
        <time>2022-07-13T07:00:57Z</time>
      </trkpt>
      <trkpt lat="44.23798" lon="6.64667">
        <ele>1676.6</ele>
        <time>2022-07-13T07:01:05Z</time>
      </trkpt>
      <trkpt lat="44.23788" lon="6.64667">
        <ele>1675.8</ele>
        <time>2022-07-13T07:01:14Z</time>
      </trkpt>
      <trkpt lat="44.23779" lon="6.64667">
        <ele>1675.2</ele>
        <time>2022-07-13T07:01:21Z</time>
      </trkpt>
      <trkpt lat="44.23771" lon="6.64674">
        <ele>1675.7</ele>
        <time>2022-07-13T07:01:29Z</time>
      </trkpt>
      <trkpt lat="44.23763" lon="6.64682">
        <ele>1676.8</ele>
        <time>2022-07-13T07:01:36Z</time>
      </trkpt>
      <trkpt lat="44.23757" lon="6.64691">
        <ele>1678.1</ele>
        <time>2022-07-13T07:01:43Z</time>
      </trkpt>
      <trkpt lat="44.23751" lon="6.64701">
        <ele>1679.1</ele>
        <time>2022-07-13T07:01:50Z</time>
      </trkpt>
      <trkpt lat="44.23744" lon="6.6471">
        <ele>1679.2</ele>
        <time>2022-07-13T07:01:59Z</time>
      </trkpt>
      <trkpt lat="44.23739" lon="6.64722">
        <ele>1680</ele>
        <time>2022-07-13T07:02:08Z</time>
      </trkpt>
      <trkpt lat="44.23734" lon="6.64732">
        <ele>1680.2</ele>
        <time>2022-07-13T07:02:22Z</time>
      </trkpt>
      <trkpt lat="44.23728" lon="6.64742">
        <ele>1680.7</ele>
        <time>2022-07-13T07:02:33Z</time>
      </trkpt>
      <trkpt lat="44.23724" lon="6.64753">
        <ele>1681.7</ele>
        <time>2022-07-13T07:02:43Z</time>
      </trkpt>
      <trkpt lat="44.23715" lon="6.64748">
        <ele>1679</ele>
        <time>2022-07-13T07:03:02Z</time>
      </trkpt>
      <trkpt lat="44.23708" lon="6.64739">
        <ele>1675.9</ele>
        <time>2022-07-13T07:03:15Z</time>
      </trkpt>
      <trkpt lat="44.237" lon="6.64746">
        <ele>1675</ele>
        <time>2022-07-13T07:03:23Z</time>
      </trkpt>
      <trkpt lat="44.23693" lon="6.64755">
        <ele>1674</ele>
        <time>2022-07-13T07:03:32Z</time>
      </trkpt>
      <trkpt lat="44.23684" lon="6.64748">
        <ele>1670.6</ele>
        <time>2022-07-13T07:03:55Z</time>
      </trkpt>
      <trkpt lat="44.23676" lon="6.64755">
        <ele>1668.7</ele>
        <time>2022-07-13T07:04:08Z</time>
      </trkpt>
      <trkpt lat="44.23669" lon="6.64764">
        <ele>1667.6</ele>
        <time>2022-07-13T07:04:17Z</time>
      </trkpt>
      <trkpt lat="44.23663" lon="6.64773">
        <ele>1667.1</ele>
        <time>2022-07-13T07:04:26Z</time>
      </trkpt>
      <trkpt lat="44.23657" lon="6.64784">
        <ele>1667.3</ele>
        <time>2022-07-13T07:04:38Z</time>
      </trkpt>
      <trkpt lat="44.23649" lon="6.64789">
        <ele>1665.8</ele>
        <time>2022-07-13T07:04:50Z</time>
      </trkpt>
      <trkpt lat="44.23641" lon="6.64797">
        <ele>1665.2</ele>
        <time>2022-07-13T07:04:58Z</time>
      </trkpt>
      <trkpt lat="44.23634" lon="6.64806">
        <ele>1665.3</ele>
        <time>2022-07-13T07:05:05Z</time>
      </trkpt>
      <trkpt lat="44.23627" lon="6.64814">
        <ele>1665.7</ele>
        <time>2022-07-13T07:05:13Z</time>
      </trkpt>
      <trkpt lat="44.23621" lon="6.64825">
        <ele>1666.8</ele>
        <time>2022-07-13T07:05:22Z</time>
      </trkpt>
      <trkpt lat="44.23615" lon="6.64836">
        <ele>1667.4</ele>
        <time>2022-07-13T07:05:32Z</time>
      </trkpt>
      <trkpt lat="44.23606" lon="6.6484">
        <ele>1665.1</ele>
        <time>2022-07-13T07:05:41Z</time>
      </trkpt>
      <trkpt lat="44.23599" lon="6.64848">
        <ele>1663.4</ele>
        <time>2022-07-13T07:05:51Z</time>
      </trkpt>
      <trkpt lat="44.23596" lon="6.64835">
        <ele>1659.3</ele>
        <time>2022-07-13T07:06:06Z</time>
      </trkpt>
      <trkpt lat="44.23588" lon="6.64829">
        <ele>1654.4</ele>
        <time>2022-07-13T07:06:29Z</time>
      </trkpt>
      <trkpt lat="44.23582" lon="6.64839">
        <ele>1654.1</ele>
        <time>2022-07-13T07:06:52Z</time>
      </trkpt>
      <trkpt lat="44.23574" lon="6.64845">
        <ele>1655.7</ele>
        <time>2022-07-13T07:07:11Z</time>
      </trkpt>
      <trkpt lat="44.23569" lon="6.64834">
        <ele>1654.1</ele>
        <time>2022-07-13T07:07:44Z</time>
      </trkpt>
      <trkpt lat="44.23578" lon="6.64838">
        <ele>1654.2</ele>
        <time>2022-07-13T07:08:43Z</time>
      </trkpt>
      <trkpt lat="44.23575" lon="6.64825">
        <ele>1652.9</ele>
        <time>2022-07-13T07:09:08Z</time>
      </trkpt>
      <trkpt lat="44.23566" lon="6.64821">
        <ele>1653.8</ele>
        <time>2022-07-13T07:09:26Z</time>
      </trkpt>
      <trkpt lat="44.23558" lon="6.64817">
        <ele>1655.2</ele>
        <time>2022-07-13T07:10:15Z</time>
      </trkpt>
      <trkpt lat="44.23548" lon="6.64817">
        <ele>1659</ele>
        <time>2022-07-13T07:10:32Z</time>
      </trkpt>
      <trkpt lat="44.23539" lon="6.6482">
        <ele>1663</ele>
        <time>2022-07-13T07:10:48Z</time>
      </trkpt>
      <trkpt lat="44.2353" lon="6.64818">
        <ele>1667.8</ele>
        <time>2022-07-13T07:11:02Z</time>
      </trkpt>
      <trkpt lat="44.23522" lon="6.64827">
        <ele>1669.3</ele>
        <time>2022-07-13T07:11:10Z</time>
      </trkpt>
      <trkpt lat="44.23515" lon="6.64834">
        <ele>1672.4</ele>
        <time>2022-07-13T07:11:19Z</time>
      </trkpt>
      <trkpt lat="44.23506" lon="6.64837">
        <ele>1678</ele>
        <time>2022-07-13T07:11:33Z</time>
      </trkpt>
      <trkpt lat="44.23497" lon="6.64841">
        <ele>1683</ele>
        <time>2022-07-13T07:11:52Z</time>
      </trkpt>
      <trkpt lat="44.23494" lon="6.64828">
        <ele>1690.8</ele>
        <time>2022-07-13T07:12:19Z</time>
      </trkpt>
      <trkpt lat="44.23492" lon="6.64815">
        <ele>1697.4</ele>
        <time>2022-07-13T07:12:32Z</time>
      </trkpt>
      <trkpt lat="44.235" lon="6.64807">
        <ele>1691</ele>
        <time>2022-07-13T07:12:46Z</time>
      </trkpt>
      <trkpt lat="44.23507" lon="6.64799">
        <ele>1689.5</ele>
        <time>2022-07-13T07:12:58Z</time>
      </trkpt>
      <trkpt lat="44.23515" lon="6.6479">
        <ele>1688.3</ele>
        <time>2022-07-13T07:13:12Z</time>
      </trkpt>
      <trkpt lat="44.23509" lon="6.6478">
        <ele>1696.3</ele>
        <time>2022-07-13T07:13:29Z</time>
      </trkpt>
      <trkpt lat="44.235" lon="6.64779">
        <ele>1703</ele>
        <time>2022-07-13T07:13:59Z</time>
      </trkpt>
      <trkpt lat="44.23491" lon="6.64782">
        <ele>1709.4</ele>
        <time>2022-07-13T07:14:07Z</time>
      </trkpt>
      <trkpt lat="44.23482" lon="6.64787">
        <ele>1715.7</ele>
        <time>2022-07-13T07:14:17Z</time>
      </trkpt>
      <trkpt lat="44.23484" lon="6.64774">
        <ele>1717.6</ele>
        <time>2022-07-13T07:14:36Z</time>
      </trkpt>
      <trkpt lat="44.2349" lon="6.64764">
        <ele>1716.3</ele>
        <time>2022-07-13T07:14:48Z</time>
      </trkpt>
      <trkpt lat="44.23494" lon="6.64752">
        <ele>1717.6</ele>
        <time>2022-07-13T07:15:07Z</time>
      </trkpt>
      <trkpt lat="44.235" lon="6.64743">
        <ele>1716</ele>
        <time>2022-07-13T07:15:16Z</time>
      </trkpt>
      <trkpt lat="44.23492" lon="6.64748">
        <ele>1720</ele>
        <time>2022-07-13T07:15:27Z</time>
      </trkpt>
      <trkpt lat="44.23484" lon="6.64739">
        <ele>1724.4</ele>
        <time>2022-07-13T07:15:41Z</time>
      </trkpt>
      <trkpt lat="44.23486" lon="6.64726">
        <ele>1724.4</ele>
        <time>2022-07-13T07:15:55Z</time>
      </trkpt>
      <trkpt lat="44.23487" lon="6.64714">
        <ele>1724.5</ele>
        <time>2022-07-13T07:16:09Z</time>
      </trkpt>
      <trkpt lat="44.23479" lon="6.64723">
        <ele>1726.7</ele>
        <time>2022-07-13T07:16:32Z</time>
      </trkpt>
      <trkpt lat="44.23471" lon="6.64729">
        <ele>1730.2</ele>
        <time>2022-07-13T07:16:41Z</time>
      </trkpt>
      <trkpt lat="44.23464" lon="6.64738">
        <ele>1734.5</ele>
        <time>2022-07-13T07:16:53Z</time>
      </trkpt>
      <trkpt lat="44.23458" lon="6.64749">
        <ele>1738.7</ele>
        <time>2022-07-13T07:17:05Z</time>
      </trkpt>
      <trkpt lat="44.2345" lon="6.64757">
        <ele>1742.6</ele>
        <time>2022-07-13T07:17:21Z</time>
      </trkpt>
      <trkpt lat="44.23441" lon="6.64761">
        <ele>1747.1</ele>
        <time>2022-07-13T07:17:31Z</time>
      </trkpt>
      <trkpt lat="44.23432" lon="6.64765">
        <ele>1751.6</ele>
        <time>2022-07-13T07:17:40Z</time>
      </trkpt>
      <trkpt lat="44.23423" lon="6.64768">
        <ele>1756.2</ele>
        <time>2022-07-13T07:17:52Z</time>
      </trkpt>
      <trkpt lat="44.23428" lon="6.64756">
        <ele>1753.6</ele>
        <time>2022-07-13T07:18:26Z</time>
      </trkpt>
      <trkpt lat="44.23435" lon="6.64747">
        <ele>1750.3</ele>
        <time>2022-07-13T07:18:36Z</time>
      </trkpt>
      <trkpt lat="44.23426" lon="6.64748">
        <ele>1754.5</ele>
        <time>2022-07-13T07:19:08Z</time>
      </trkpt>
      <trkpt lat="44.2343" lon="6.64736">
        <ele>1751.6</ele>
        <time>2022-07-13T07:19:20Z</time>
      </trkpt>
      <trkpt lat="44.23426" lon="6.64724">
        <ele>1753</ele>
        <time>2022-07-13T07:19:38Z</time>
      </trkpt>
      <trkpt lat="44.23424" lon="6.64712">
        <ele>1752.6</ele>
        <time>2022-07-13T07:19:54Z</time>
      </trkpt>
      <trkpt lat="44.23418" lon="6.64701">
        <ele>1753.9</ele>
        <time>2022-07-13T07:20:07Z</time>
      </trkpt>
      <trkpt lat="44.23412" lon="6.64691">
        <ele>1755.3</ele>
        <time>2022-07-13T07:20:21Z</time>
      </trkpt>
      <trkpt lat="44.23404" lon="6.64682">
        <ele>1756.5</ele>
        <time>2022-07-13T07:20:32Z</time>
      </trkpt>
      <trkpt lat="44.23401" lon="6.6467">
        <ele>1755.8</ele>
        <time>2022-07-13T07:20:42Z</time>
      </trkpt>
      <trkpt lat="44.23397" lon="6.64658">
        <ele>1755.3</ele>
        <time>2022-07-13T07:20:52Z</time>
      </trkpt>
      <trkpt lat="44.23391" lon="6.64648">
        <ele>1756</ele>
        <time>2022-07-13T07:21:04Z</time>
      </trkpt>
      <trkpt lat="44.23385" lon="6.64637">
        <ele>1755.9</ele>
        <time>2022-07-13T07:21:22Z</time>
      </trkpt>
      <trkpt lat="44.23381" lon="6.64625">
        <ele>1754.5</ele>
        <time>2022-07-13T07:21:32Z</time>
      </trkpt>
      <trkpt lat="44.23376" lon="6.64614">
        <ele>1753.9</ele>
        <time>2022-07-13T07:21:43Z</time>
      </trkpt>
      <trkpt lat="44.23369" lon="6.64606">
        <ele>1754.7</ele>
        <time>2022-07-13T07:21:54Z</time>
      </trkpt>
      <trkpt lat="44.23361" lon="6.64599">
        <ele>1756</ele>
        <time>2022-07-13T07:22:05Z</time>
      </trkpt>
      <trkpt lat="44.23353" lon="6.64591">
        <ele>1756</ele>
        <time>2022-07-13T07:22:16Z</time>
      </trkpt>
      <trkpt lat="44.23344" lon="6.64589">
        <ele>1757.6</ele>
        <time>2022-07-13T07:22:25Z</time>
      </trkpt>
      <trkpt lat="44.23336" lon="6.6458">
        <ele>1757.8</ele>
        <time>2022-07-13T07:22:36Z</time>
      </trkpt>
      <trkpt lat="44.23332" lon="6.64569">
        <ele>1756.7</ele>
        <time>2022-07-13T07:22:45Z</time>
      </trkpt>
      <trkpt lat="44.23326" lon="6.64558">
        <ele>1755.8</ele>
        <time>2022-07-13T07:22:54Z</time>
      </trkpt>
      <trkpt lat="44.23318" lon="6.64551">
        <ele>1756</ele>
        <time>2022-07-13T07:23:02Z</time>
      </trkpt>
      <trkpt lat="44.23311" lon="6.64544">
        <ele>1756</ele>
        <time>2022-07-13T07:23:11Z</time>
      </trkpt>
      <trkpt lat="44.23302" lon="6.64539">
        <ele>1756.8</ele>
        <time>2022-07-13T07:23:20Z</time>
      </trkpt>
      <trkpt lat="44.23293" lon="6.64537">
        <ele>1758.2</ele>
        <time>2022-07-13T07:23:27Z</time>
      </trkpt>
      <trkpt lat="44.23284" lon="6.64531">
        <ele>1758.5</ele>
        <time>2022-07-13T07:23:35Z</time>
      </trkpt>
      <trkpt lat="44.23276" lon="6.64524">
        <ele>1758.3</ele>
        <time>2022-07-13T07:23:48Z</time>
      </trkpt>
      <trkpt lat="44.23272" lon="6.64511">
        <ele>1755.7</ele>
        <time>2022-07-13T07:24:03Z</time>
      </trkpt>
      <trkpt lat="44.23266" lon="6.64502">
        <ele>1754.4</ele>
        <time>2022-07-13T07:24:15Z</time>
      </trkpt>
      <trkpt lat="44.23257" lon="6.64495">
        <ele>1755.3</ele>
        <time>2022-07-13T07:24:23Z</time>
      </trkpt>
      <trkpt lat="44.23251" lon="6.64485">
        <ele>1755</ele>
        <time>2022-07-13T07:24:32Z</time>
      </trkpt>
      <trkpt lat="44.23244" lon="6.64473">
        <ele>1754.8</ele>
        <time>2022-07-13T07:24:41Z</time>
      </trkpt>
      <trkpt lat="44.23239" lon="6.64462">
        <ele>1754.6</ele>
        <time>2022-07-13T07:24:48Z</time>
      </trkpt>
      <trkpt lat="44.23234" lon="6.64451">
        <ele>1754.1</ele>
        <time>2022-07-13T07:24:55Z</time>
      </trkpt>
      <trkpt lat="44.23228" lon="6.64441">
        <ele>1754.1</ele>
        <time>2022-07-13T07:25:04Z</time>
      </trkpt>
      <trkpt lat="44.2322" lon="6.64433">
        <ele>1754.4</ele>
        <time>2022-07-13T07:25:18Z</time>
      </trkpt>
      <trkpt lat="44.23216" lon="6.64422">
        <ele>1753.3</ele>
        <time>2022-07-13T07:25:26Z</time>
      </trkpt>
      <trkpt lat="44.2322" lon="6.64409">
        <ele>1750.4</ele>
        <time>2022-07-13T07:25:37Z</time>
      </trkpt>
      <trkpt lat="44.23219" lon="6.64396">
        <ele>1748.5</ele>
        <time>2022-07-13T07:25:45Z</time>
      </trkpt>
      <trkpt lat="44.23213" lon="6.64385">
        <ele>1747.7</ele>
        <time>2022-07-13T07:25:55Z</time>
      </trkpt>
      <trkpt lat="44.23205" lon="6.64376">
        <ele>1746.9</ele>
        <time>2022-07-13T07:26:06Z</time>
      </trkpt>
      <trkpt lat="44.23202" lon="6.64364">
        <ele>1744.9</ele>
        <time>2022-07-13T07:26:14Z</time>
      </trkpt>
      <trkpt lat="44.23197" lon="6.64353">
        <ele>1743</ele>
        <time>2022-07-13T07:26:23Z</time>
      </trkpt>
      <trkpt lat="44.23195" lon="6.6434">
        <ele>1740.4</ele>
        <time>2022-07-13T07:26:34Z</time>
      </trkpt>
      <trkpt lat="44.23193" lon="6.64327">
        <ele>1737.6</ele>
        <time>2022-07-13T07:26:43Z</time>
      </trkpt>
      <trkpt lat="44.23192" lon="6.64314">
        <ele>1734.4</ele>
        <time>2022-07-13T07:26:51Z</time>
      </trkpt>
      <trkpt lat="44.23192" lon="6.643">
        <ele>1731.1</ele>
        <time>2022-07-13T07:26:57Z</time>
      </trkpt>
      <trkpt lat="44.2319" lon="6.64288">
        <ele>1728.5</ele>
        <time>2022-07-13T07:27:04Z</time>
      </trkpt>
      <trkpt lat="44.23185" lon="6.64276">
        <ele>1726.3</ele>
        <time>2022-07-13T07:27:13Z</time>
      </trkpt>
      <trkpt lat="44.23181" lon="6.64264">
        <ele>1723.8</ele>
        <time>2022-07-13T07:27:21Z</time>
      </trkpt>
      <trkpt lat="44.23173" lon="6.64256">
        <ele>1722.2</ele>
        <time>2022-07-13T07:27:30Z</time>
      </trkpt>
      <trkpt lat="44.23165" lon="6.64247">
        <ele>1720.4</ele>
        <time>2022-07-13T07:27:40Z</time>
      </trkpt>
      <trkpt lat="44.23158" lon="6.64238">
        <ele>1718.7</ele>
        <time>2022-07-13T07:27:49Z</time>
      </trkpt>
      <trkpt lat="44.23149" lon="6.64233">
        <ele>1718</ele>
        <time>2022-07-13T07:27:58Z</time>
      </trkpt>
      <trkpt lat="44.23139" lon="6.64233">
        <ele>1718.3</ele>
        <time>2022-07-13T07:28:07Z</time>
      </trkpt>
      <trkpt lat="44.23131" lon="6.64227">
        <ele>1718.2</ele>
        <time>2022-07-13T07:28:20Z</time>
      </trkpt>
      <trkpt lat="44.23128" lon="6.64215">
        <ele>1716.4</ele>
        <time>2022-07-13T07:28:31Z</time>
      </trkpt>
      <trkpt lat="44.2312" lon="6.64209">
        <ele>1716.5</ele>
        <time>2022-07-13T07:28:40Z</time>
      </trkpt>
      <trkpt lat="44.2311" lon="6.64207">
        <ele>1717.5</ele>
        <time>2022-07-13T07:28:52Z</time>
      </trkpt>
      <trkpt lat="44.23101" lon="6.64206">
        <ele>1719.4</ele>
        <time>2022-07-13T07:29:03Z</time>
      </trkpt>
      <trkpt lat="44.23092" lon="6.64202">
        <ele>1720.7</ele>
        <time>2022-07-13T07:29:17Z</time>
      </trkpt>
      <trkpt lat="44.23083" lon="6.64199">
        <ele>1721.9</ele>
        <time>2022-07-13T07:29:32Z</time>
      </trkpt>
      <trkpt lat="44.23074" lon="6.64201">
        <ele>1724.1</ele>
        <time>2022-07-13T07:29:47Z</time>
      </trkpt>
      <trkpt lat="44.23065" lon="6.64207">
        <ele>1727.3</ele>
        <time>2022-07-13T07:29:58Z</time>
      </trkpt>
      <trkpt lat="44.2306" lon="6.64218">
        <ele>1730.9</ele>
        <time>2022-07-13T07:30:10Z</time>
      </trkpt>
      <trkpt lat="44.23052" lon="6.64224">
        <ele>1733.8</ele>
        <time>2022-07-13T07:30:27Z</time>
      </trkpt>
      <trkpt lat="44.23044" lon="6.64231">
        <ele>1736.3</ele>
        <time>2022-07-13T07:30:48Z</time>
      </trkpt>
      <trkpt lat="44.23036" lon="6.64239">
        <ele>1739.1</ele>
        <time>2022-07-13T07:31:06Z</time>
      </trkpt>
      <trkpt lat="44.23027" lon="6.64244">
        <ele>1741.2</ele>
        <time>2022-07-13T07:31:17Z</time>
      </trkpt>
      <trkpt lat="44.23033" lon="6.64254">
        <ele>1743.6</ele>
        <time>2022-07-13T07:31:38Z</time>
      </trkpt>
      <trkpt lat="44.23043" lon="6.64255">
        <ele>1742.9</ele>
        <time>2022-07-13T07:31:48Z</time>
      </trkpt>
      <trkpt lat="44.23052" lon="6.64257">
        <ele>1742.7</ele>
        <time>2022-07-13T07:32:03Z</time>
      </trkpt>
      <trkpt lat="44.23056" lon="6.64268">
        <ele>1745.5</ele>
        <time>2022-07-13T07:32:20Z</time>
      </trkpt>
      <trkpt lat="44.23062" lon="6.64278">
        <ele>1747.6</ele>
        <time>2022-07-13T07:32:33Z</time>
      </trkpt>
      <trkpt lat="44.23068" lon="6.64288">
        <ele>1749</ele>
        <time>2022-07-13T07:32:44Z</time>
      </trkpt>
      <trkpt lat="44.23074" lon="6.64299">
        <ele>1751.2</ele>
        <time>2022-07-13T07:32:54Z</time>
      </trkpt>
      <trkpt lat="44.23071" lon="6.64311">
        <ele>1755.8</ele>
        <time>2022-07-13T07:33:10Z</time>
      </trkpt>
      <trkpt lat="44.23062" lon="6.64315">
        <ele>1759</ele>
        <time>2022-07-13T07:33:23Z</time>
      </trkpt>
      <trkpt lat="44.23053" lon="6.64316">
        <ele>1761.1</ele>
        <time>2022-07-13T07:33:37Z</time>
      </trkpt>
      <trkpt lat="44.23044" lon="6.64318">
        <ele>1762.4</ele>
        <time>2022-07-13T07:33:54Z</time>
      </trkpt>
      <trkpt lat="44.23035" lon="6.64323">
        <ele>1764.6</ele>
        <time>2022-07-13T07:34:20Z</time>
      </trkpt>
      <trkpt lat="44.23027" lon="6.64331">
        <ele>1767.2</ele>
        <time>2022-07-13T07:34:39Z</time>
      </trkpt>
      <trkpt lat="44.23025" lon="6.64343">
        <ele>1770.8</ele>
        <time>2022-07-13T07:34:58Z</time>
      </trkpt>
      <trkpt lat="44.23031" lon="6.64354">
        <ele>1773.8</ele>
        <time>2022-07-13T07:35:10Z</time>
      </trkpt>
      <trkpt lat="44.23037" lon="6.64364">
        <ele>1775.9</ele>
        <time>2022-07-13T07:35:24Z</time>
      </trkpt>
      <trkpt lat="44.2304" lon="6.64376">
        <ele>1779.1</ele>
        <time>2022-07-13T07:35:43Z</time>
      </trkpt>
      <trkpt lat="44.23047" lon="6.64386">
        <ele>1780.8</ele>
        <time>2022-07-13T07:35:57Z</time>
      </trkpt>
      <trkpt lat="44.23054" lon="6.64394">
        <ele>1781.6</ele>
        <time>2022-07-13T07:36:09Z</time>
      </trkpt>
      <trkpt lat="44.23059" lon="6.64404">
        <ele>1782.9</ele>
        <time>2022-07-13T07:36:24Z</time>
      </trkpt>
      <trkpt lat="44.23064" lon="6.64415">
        <ele>1784.6</ele>
        <time>2022-07-13T07:36:40Z</time>
      </trkpt>
      <trkpt lat="44.23066" lon="6.64428">
        <ele>1786.8</ele>
        <time>2022-07-13T07:36:54Z</time>
      </trkpt>
      <trkpt lat="44.23067" lon="6.6444">
        <ele>1789.7</ele>
        <time>2022-07-13T07:37:13Z</time>
      </trkpt>
      <trkpt lat="44.23071" lon="6.64452">
        <ele>1791.2</ele>
        <time>2022-07-13T07:37:33Z</time>
      </trkpt>
      <trkpt lat="44.23073" lon="6.64465">
        <ele>1793.7</ele>
        <time>2022-07-13T07:37:51Z</time>
      </trkpt>
      <trkpt lat="44.23076" lon="6.64477">
        <ele>1795.6</ele>
        <time>2022-07-13T07:38:07Z</time>
      </trkpt>
      <trkpt lat="44.23073" lon="6.64489">
        <ele>1799.3</ele>
        <time>2022-07-13T07:38:21Z</time>
      </trkpt>
      <trkpt lat="44.23065" lon="6.64496">
        <ele>1802.4</ele>
        <time>2022-07-13T07:38:43Z</time>
      </trkpt>
      <trkpt lat="44.23061" lon="6.64507">
        <ele>1805.4</ele>
        <time>2022-07-13T07:38:53Z</time>
      </trkpt>
      <trkpt lat="44.23063" lon="6.6452">
        <ele>1807.5</ele>
        <time>2022-07-13T07:39:05Z</time>
      </trkpt>
      <trkpt lat="44.23072" lon="6.64521">
        <ele>1806.2</ele>
        <time>2022-07-13T07:39:15Z</time>
      </trkpt>
      <trkpt lat="44.23074" lon="6.64533">
        <ele>1808.5</ele>
        <time>2022-07-13T07:39:31Z</time>
      </trkpt>
      <trkpt lat="44.23074" lon="6.64546">
        <ele>1811.3</ele>
        <time>2022-07-13T07:39:44Z</time>
      </trkpt>
      <trkpt lat="44.23075" lon="6.64559">
        <ele>1813.9</ele>
        <time>2022-07-13T07:40:01Z</time>
      </trkpt>
      <trkpt lat="44.23075" lon="6.64572">
        <ele>1816.5</ele>
        <time>2022-07-13T07:40:13Z</time>
      </trkpt>
      <trkpt lat="44.23071" lon="6.64583">
        <ele>1819.3</ele>
        <time>2022-07-13T07:40:27Z</time>
      </trkpt>
      <trkpt lat="44.23069" lon="6.64596">
        <ele>1821.5</ele>
        <time>2022-07-13T07:40:41Z</time>
      </trkpt>
      <trkpt lat="44.23062" lon="6.64604">
        <ele>1823.4</ele>
        <time>2022-07-13T07:40:56Z</time>
      </trkpt>
      <trkpt lat="44.23055" lon="6.64614">
        <ele>1825.5</ele>
        <time>2022-07-13T07:41:08Z</time>
      </trkpt>
      <trkpt lat="44.23049" lon="6.64623">
        <ele>1827.8</ele>
        <time>2022-07-13T07:41:20Z</time>
      </trkpt>
      <trkpt lat="44.23042" lon="6.6463">
        <ele>1829.7</ele>
        <time>2022-07-13T07:41:34Z</time>
      </trkpt>
      <trkpt lat="44.23037" lon="6.64642">
        <ele>1831.7</ele>
        <time>2022-07-13T07:41:50Z</time>
      </trkpt>
      <trkpt lat="44.23035" lon="6.64655">
        <ele>1833.5</ele>
        <time>2022-07-13T07:42:07Z</time>
      </trkpt>
      <trkpt lat="44.2303" lon="6.64666">
        <ele>1834.9</ele>
        <time>2022-07-13T07:42:21Z</time>
      </trkpt>
      <trkpt lat="44.23024" lon="6.64676">
        <ele>1836.4</ele>
        <time>2022-07-13T07:42:34Z</time>
      </trkpt>
      <trkpt lat="44.23019" lon="6.64687">
        <ele>1837.7</ele>
        <time>2022-07-13T07:42:51Z</time>
      </trkpt>
      <trkpt lat="44.23024" lon="6.64699">
        <ele>1838.7</ele>
        <time>2022-07-13T07:43:14Z</time>
      </trkpt>
      <trkpt lat="44.23022" lon="6.64711">
        <ele>1840.4</ele>
        <time>2022-07-13T07:43:25Z</time>
      </trkpt>
      <trkpt lat="44.2302" lon="6.64724">
        <ele>1842</ele>
        <time>2022-07-13T07:43:38Z</time>
      </trkpt>
      <trkpt lat="44.2302" lon="6.64737">
        <ele>1844.1</ele>
        <time>2022-07-13T07:43:50Z</time>
      </trkpt>
      <trkpt lat="44.23015" lon="6.64748">
        <ele>1845.3</ele>
        <time>2022-07-13T07:44:01Z</time>
      </trkpt>
      <trkpt lat="44.23015" lon="6.6476">
        <ele>1847.5</ele>
        <time>2022-07-13T07:44:15Z</time>
      </trkpt>
      <trkpt lat="44.23011" lon="6.64772">
        <ele>1849.1</ele>
        <time>2022-07-13T07:44:29Z</time>
      </trkpt>
      <trkpt lat="44.23007" lon="6.64784">
        <ele>1850.5</ele>
        <time>2022-07-13T07:44:42Z</time>
      </trkpt>
      <trkpt lat="44.23" lon="6.64792">
        <ele>1850.6</ele>
        <time>2022-07-13T07:44:53Z</time>
      </trkpt>
      <trkpt lat="44.22993" lon="6.64799">
        <ele>1851.5</ele>
        <time>2022-07-13T07:45:08Z</time>
      </trkpt>
      <trkpt lat="44.22987" lon="6.64809">
        <ele>1853.1</ele>
        <time>2022-07-13T07:45:21Z</time>
      </trkpt>
      <trkpt lat="44.22984" lon="6.64821">
        <ele>1855.2</ele>
        <time>2022-07-13T07:45:31Z</time>
      </trkpt>
      <trkpt lat="44.22984" lon="6.64834">
        <ele>1857.5</ele>
        <time>2022-07-13T07:45:41Z</time>
      </trkpt>
      <trkpt lat="44.2298" lon="6.64845">
        <ele>1859</ele>
        <time>2022-07-13T07:45:52Z</time>
      </trkpt>
      <trkpt lat="44.22979" lon="6.64858">
        <ele>1860.8</ele>
        <time>2022-07-13T07:46:05Z</time>
      </trkpt>
      <trkpt lat="44.22973" lon="6.64868">
        <ele>1861.8</ele>
        <time>2022-07-13T07:46:19Z</time>
      </trkpt>
      <trkpt lat="44.22967" lon="6.64877">
        <ele>1862.8</ele>
        <time>2022-07-13T07:46:30Z</time>
      </trkpt>
      <trkpt lat="44.22961" lon="6.64888">
        <ele>1864.3</ele>
        <time>2022-07-13T07:46:41Z</time>
      </trkpt>
      <trkpt lat="44.22956" lon="6.64898">
        <ele>1865.6</ele>
        <time>2022-07-13T07:46:51Z</time>
      </trkpt>
      <trkpt lat="44.22948" lon="6.64906">
        <ele>1866.7</ele>
        <time>2022-07-13T07:47:05Z</time>
      </trkpt>
      <trkpt lat="44.2294" lon="6.64912">
        <ele>1867.8</ele>
        <time>2022-07-13T07:48:11Z</time>
      </trkpt>
      <trkpt lat="44.22938" lon="6.64925">
        <ele>1869.6</ele>
        <time>2022-07-13T07:50:59Z</time>
      </trkpt>
      <trkpt lat="44.22934" lon="6.64936">
        <ele>1871.5</ele>
        <time>2022-07-13T07:51:12Z</time>
      </trkpt>
      <trkpt lat="44.2293" lon="6.64948">
        <ele>1873.4</ele>
        <time>2022-07-13T07:51:26Z</time>
      </trkpt>
      <trkpt lat="44.22927" lon="6.6496">
        <ele>1875.3</ele>
        <time>2022-07-13T07:51:40Z</time>
      </trkpt>
      <trkpt lat="44.22924" lon="6.64972">
        <ele>1877.2</ele>
        <time>2022-07-13T07:51:54Z</time>
      </trkpt>
      <trkpt lat="44.2292" lon="6.64983">
        <ele>1878.9</ele>
        <time>2022-07-13T07:52:10Z</time>
      </trkpt>
      <trkpt lat="44.22913" lon="6.64993">
        <ele>1880.7</ele>
        <time>2022-07-13T07:52:26Z</time>
      </trkpt>
      <trkpt lat="44.22908" lon="6.65003">
        <ele>1882.7</ele>
        <time>2022-07-13T07:52:39Z</time>
      </trkpt>
      <trkpt lat="44.229" lon="6.65011">
        <ele>1884.8</ele>
        <time>2022-07-13T07:52:51Z</time>
      </trkpt>
      <trkpt lat="44.22891" lon="6.65014">
        <ele>1886.7</ele>
        <time>2022-07-13T07:53:02Z</time>
      </trkpt>
      <trkpt lat="44.22887" lon="6.65026">
        <ele>1889.1</ele>
        <time>2022-07-13T07:53:17Z</time>
      </trkpt>
      <trkpt lat="44.22885" lon="6.65039">
        <ele>1891.3</ele>
        <time>2022-07-13T07:53:29Z</time>
      </trkpt>
      <trkpt lat="44.22879" lon="6.65048">
        <ele>1893.8</ele>
        <time>2022-07-13T07:53:43Z</time>
      </trkpt>
      <trkpt lat="44.2287" lon="6.65053">
        <ele>1896.1</ele>
        <time>2022-07-13T07:53:57Z</time>
      </trkpt>
      <trkpt lat="44.22863" lon="6.65062">
        <ele>1898.6</ele>
        <time>2022-07-13T07:54:09Z</time>
      </trkpt>
      <trkpt lat="44.22858" lon="6.65073">
        <ele>1901.2</ele>
        <time>2022-07-13T07:54:22Z</time>
      </trkpt>
      <trkpt lat="44.22852" lon="6.65083">
        <ele>1903.9</ele>
        <time>2022-07-13T07:54:40Z</time>
      </trkpt>
      <trkpt lat="44.22844" lon="6.6509">
        <ele>1906.3</ele>
        <time>2022-07-13T07:54:59Z</time>
      </trkpt>
      <trkpt lat="44.22836" lon="6.65094">
        <ele>1908.6</ele>
        <time>2022-07-13T07:55:15Z</time>
      </trkpt>
      <trkpt lat="44.22828" lon="6.65101">
        <ele>1911</ele>
        <time>2022-07-13T07:55:30Z</time>
      </trkpt>
      <trkpt lat="44.22822" lon="6.6511">
        <ele>1913.4</ele>
        <time>2022-07-13T07:55:50Z</time>
      </trkpt>
      <trkpt lat="44.22813" lon="6.65113">
        <ele>1915.7</ele>
        <time>2022-07-13T07:56:05Z</time>
      </trkpt>
      <trkpt lat="44.22807" lon="6.65123">
        <ele>1918.8</ele>
        <time>2022-07-13T07:56:28Z</time>
      </trkpt>
      <trkpt lat="44.22802" lon="6.65135">
        <ele>1922.1</ele>
        <time>2022-07-13T07:56:43Z</time>
      </trkpt>
      <trkpt lat="44.22795" lon="6.65143">
        <ele>1925.5</ele>
        <time>2022-07-13T07:57:06Z</time>
      </trkpt>
      <trkpt lat="44.22789" lon="6.65133">
        <ele>1924.9</ele>
        <time>2022-07-13T07:57:29Z</time>
      </trkpt>
      <trkpt lat="44.22781" lon="6.65139">
        <ele>1928.2</ele>
        <time>2022-07-13T07:58:05Z</time>
      </trkpt>
      <trkpt lat="44.22773" lon="6.65147">
        <ele>1931.8</ele>
        <time>2022-07-13T07:58:22Z</time>
      </trkpt>
      <trkpt lat="44.22764" lon="6.65149">
        <ele>1934.6</ele>
        <time>2022-07-13T07:58:40Z</time>
      </trkpt>
      <trkpt lat="44.22755" lon="6.65151">
        <ele>1937.8</ele>
        <time>2022-07-13T07:59:03Z</time>
      </trkpt>
      <trkpt lat="44.22749" lon="6.65161">
        <ele>1942.5</ele>
        <time>2022-07-13T07:59:28Z</time>
      </trkpt>
      <trkpt lat="44.22741" lon="6.65169">
        <ele>1947.4</ele>
        <time>2022-07-13T08:00:19Z</time>
      </trkpt>
      <trkpt lat="44.22731" lon="6.65167">
        <ele>1949.6</ele>
        <time>2022-07-13T08:00:34Z</time>
      </trkpt>
      <trkpt lat="44.22721" lon="6.65167">
        <ele>1952.4</ele>
        <time>2022-07-13T08:00:44Z</time>
      </trkpt>
      <trkpt lat="44.22713" lon="6.65171">
        <ele>1955.6</ele>
        <time>2022-07-13T08:00:56Z</time>
      </trkpt>
      <trkpt lat="44.22703" lon="6.65172">
        <ele>1958.3</ele>
        <time>2022-07-13T08:01:13Z</time>
      </trkpt>
      <trkpt lat="44.22694" lon="6.65174">
        <ele>1961</ele>
        <time>2022-07-13T08:01:27Z</time>
      </trkpt>
      <trkpt lat="44.22685" lon="6.65171">
        <ele>1961.7</ele>
        <time>2022-07-13T08:01:38Z</time>
      </trkpt>
      <trkpt lat="44.22677" lon="6.65175">
        <ele>1965.7</ele>
        <time>2022-07-13T08:02:02Z</time>
      </trkpt>
      <trkpt lat="44.22668" lon="6.65181">
        <ele>1970.2</ele>
        <time>2022-07-13T08:02:13Z</time>
      </trkpt>
      <trkpt lat="44.22659" lon="6.65181">
        <ele>1972.2</ele>
        <time>2022-07-13T08:02:26Z</time>
      </trkpt>
      <trkpt lat="44.2265" lon="6.6518">
        <ele>1973.7</ele>
        <time>2022-07-13T08:02:44Z</time>
      </trkpt>
      <trkpt lat="44.2264" lon="6.65178">
        <ele>1974.6</ele>
        <time>2022-07-13T08:02:58Z</time>
      </trkpt>
      <trkpt lat="44.22635" lon="6.65167">
        <ele>1971.4</ele>
        <time>2022-07-13T08:03:08Z</time>
      </trkpt>
      <trkpt lat="44.22626" lon="6.65161">
        <ele>1972.2</ele>
        <time>2022-07-13T08:03:25Z</time>
      </trkpt>
      <trkpt lat="44.22617" lon="6.65155">
        <ele>1973.6</ele>
        <time>2022-07-13T08:03:35Z</time>
      </trkpt>
      <trkpt lat="44.22609" lon="6.6515">
        <ele>1975.1</ele>
        <time>2022-07-13T08:03:45Z</time>
      </trkpt>
      <trkpt lat="44.22602" lon="6.65141">
        <ele>1975.8</ele>
        <time>2022-07-13T08:03:55Z</time>
      </trkpt>
      <trkpt lat="44.22593" lon="6.65135">
        <ele>1978.4</ele>
        <time>2022-07-13T08:04:03Z</time>
      </trkpt>
      <trkpt lat="44.22589" lon="6.65123">
        <ele>1978.9</ele>
        <time>2022-07-13T08:04:18Z</time>
      </trkpt>
      <trkpt lat="44.22587" lon="6.6511">
        <ele>1978.8</ele>
        <time>2022-07-13T08:04:32Z</time>
      </trkpt>
      <trkpt lat="44.2259" lon="6.65098">
        <ele>1978.2</ele>
        <time>2022-07-13T08:04:45Z</time>
      </trkpt>
      <trkpt lat="44.22584" lon="6.65089">
        <ele>1979.9</ele>
        <time>2022-07-13T08:05:24Z</time>
      </trkpt>
      <trkpt lat="44.22576" lon="6.65095">
        <ele>1981.7</ele>
        <time>2022-07-13T08:05:42Z</time>
      </trkpt>
      <trkpt lat="44.2257" lon="6.65106">
        <ele>1983.5</ele>
        <time>2022-07-13T08:06:01Z</time>
      </trkpt>
      <trkpt lat="44.22563" lon="6.65114">
        <ele>1986.3</ele>
        <time>2022-07-13T08:06:18Z</time>
      </trkpt>
      <trkpt lat="44.22555" lon="6.65122">
        <ele>1989.3</ele>
        <time>2022-07-13T08:06:30Z</time>
      </trkpt>
      <trkpt lat="44.22546" lon="6.65124">
        <ele>1991.3</ele>
        <time>2022-07-13T08:06:44Z</time>
      </trkpt>
      <trkpt lat="44.22545" lon="6.65137">
        <ele>1992.9</ele>
        <time>2022-07-13T08:07:03Z</time>
      </trkpt>
      <trkpt lat="44.22543" lon="6.65149">
        <ele>1995.4</ele>
        <time>2022-07-13T08:07:27Z</time>
      </trkpt>
      <trkpt lat="44.2254" lon="6.65161">
        <ele>1998.2</ele>
        <time>2022-07-13T08:07:43Z</time>
      </trkpt>
      <trkpt lat="44.22543" lon="6.65174">
        <ele>1999.5</ele>
        <time>2022-07-13T08:08:05Z</time>
      </trkpt>
      <trkpt lat="44.22538" lon="6.65184">
        <ele>2002.7</ele>
        <time>2022-07-13T08:08:18Z</time>
      </trkpt>
      <trkpt lat="44.2253" lon="6.65192">
        <ele>2006</ele>
        <time>2022-07-13T08:08:33Z</time>
      </trkpt>
      <trkpt lat="44.22527" lon="6.65204">
        <ele>2009.6</ele>
        <time>2022-07-13T08:09:02Z</time>
      </trkpt>
      <trkpt lat="44.22533" lon="6.65215">
        <ele>2010.9</ele>
        <time>2022-07-13T08:09:27Z</time>
      </trkpt>
      <trkpt lat="44.22537" lon="6.65226">
        <ele>2012.8</ele>
        <time>2022-07-13T08:09:49Z</time>
      </trkpt>
      <trkpt lat="44.22538" lon="6.65238">
        <ele>2017.3</ele>
        <time>2022-07-13T08:10:06Z</time>
      </trkpt>
      <trkpt lat="44.22544" lon="6.65248">
        <ele>2019.3</ele>
        <time>2022-07-13T08:10:20Z</time>
      </trkpt>
      <trkpt lat="44.22551" lon="6.65258">
        <ele>2022.1</ele>
        <time>2022-07-13T08:10:30Z</time>
      </trkpt>
      <trkpt lat="44.22559" lon="6.65265">
        <ele>2023.7</ele>
        <time>2022-07-13T08:10:46Z</time>
      </trkpt>
      <trkpt lat="44.22553" lon="6.65274">
        <ele>2029</ele>
        <time>2022-07-13T08:11:06Z</time>
      </trkpt>
      <trkpt lat="44.22561" lon="6.65279">
        <ele>2031.1</ele>
        <time>2022-07-13T08:12:39Z</time>
      </trkpt>
      <trkpt lat="44.22571" lon="6.65281">
        <ele>2032.4</ele>
        <time>2022-07-13T08:12:51Z</time>
      </trkpt>
      <trkpt lat="44.22565" lon="6.65291">
        <ele>2037.8</ele>
        <time>2022-07-13T08:13:35Z</time>
      </trkpt>
      <trkpt lat="44.22573" lon="6.65296">
        <ele>2041.6</ele>
        <time>2022-07-13T08:14:09Z</time>
      </trkpt>
      <trkpt lat="44.22583" lon="6.65298">
        <ele>2044.2</ele>
        <time>2022-07-13T08:14:22Z</time>
      </trkpt>
      <trkpt lat="44.22592" lon="6.65303">
        <ele>2047.9</ele>
        <time>2022-07-13T08:14:33Z</time>
      </trkpt>
      <trkpt lat="44.22601" lon="6.65305">
        <ele>2049.3</ele>
        <time>2022-07-13T08:14:51Z</time>
      </trkpt>
      <trkpt lat="44.2261" lon="6.65308">
        <ele>2051.2</ele>
        <time>2022-07-13T08:15:04Z</time>
      </trkpt>
      <trkpt lat="44.22614" lon="6.65319">
        <ele>2055.3</ele>
        <time>2022-07-13T08:15:26Z</time>
      </trkpt>
      <trkpt lat="44.2262" lon="6.6533">
        <ele>2058.9</ele>
        <time>2022-07-13T08:15:43Z</time>
      </trkpt>
      <trkpt lat="44.22627" lon="6.65339">
        <ele>2061.3</ele>
        <time>2022-07-13T08:16:04Z</time>
      </trkpt>
      <trkpt lat="44.22632" lon="6.65349">
        <ele>2064.1</ele>
        <time>2022-07-13T08:16:23Z</time>
      </trkpt>
      <trkpt lat="44.22639" lon="6.65358">
        <ele>2065.5</ele>
        <time>2022-07-13T08:16:36Z</time>
      </trkpt>
      <trkpt lat="44.2263" lon="6.65358">
        <ele>2068.2</ele>
        <time>2022-07-13T08:16:50Z</time>
      </trkpt>
      <trkpt lat="44.22621" lon="6.65354">
        <ele>2069.1</ele>
        <time>2022-07-13T08:17:01Z</time>
      </trkpt>
      <trkpt lat="44.22612" lon="6.65351">
        <ele>2070.2</ele>
        <time>2022-07-13T08:17:13Z</time>
      </trkpt>
      <trkpt lat="44.22602" lon="6.65352">
        <ele>2071.7</ele>
        <time>2022-07-13T08:17:24Z</time>
      </trkpt>
      <trkpt lat="44.22593" lon="6.65354">
        <ele>2073.3</ele>
        <time>2022-07-13T08:17:36Z</time>
      </trkpt>
      <trkpt lat="44.22601" lon="6.6536">
        <ele>2075.7</ele>
        <time>2022-07-13T08:18:03Z</time>
      </trkpt>
      <trkpt lat="44.22596" lon="6.65371">
        <ele>2082.2</ele>
        <time>2022-07-13T08:18:29Z</time>
      </trkpt>
      <trkpt lat="44.22586" lon="6.65373">
        <ele>2084.3</ele>
        <time>2022-07-13T08:18:42Z</time>
      </trkpt>
      <trkpt lat="44.22577" lon="6.65375">
        <ele>2086.8</ele>
        <time>2022-07-13T08:18:52Z</time>
      </trkpt>
      <trkpt lat="44.22567" lon="6.65377">
        <ele>2088.8</ele>
        <time>2022-07-13T08:19:06Z</time>
      </trkpt>
      <trkpt lat="44.2256" lon="6.65385">
        <ele>2093.3</ele>
        <time>2022-07-13T08:19:34Z</time>
      </trkpt>
      <trkpt lat="44.22551" lon="6.65389">
        <ele>2096.1</ele>
        <time>2022-07-13T08:20:01Z</time>
      </trkpt>
      <trkpt lat="44.22542" lon="6.65392">
        <ele>2100</ele>
        <time>2022-07-13T08:20:24Z</time>
      </trkpt>
      <trkpt lat="44.22534" lon="6.65386">
        <ele>2099.5</ele>
        <time>2022-07-13T08:21:11Z</time>
      </trkpt>
      <trkpt lat="44.22526" lon="6.65391">
        <ele>2104.7</ele>
        <time>2022-07-13T08:21:33Z</time>
      </trkpt>
      <trkpt lat="44.22519" lon="6.654">
        <ele>2111</ele>
        <time>2022-07-13T08:21:49Z</time>
      </trkpt>
      <trkpt lat="44.2252" lon="6.65413">
        <ele>2114.6</ele>
        <time>2022-07-13T08:22:07Z</time>
      </trkpt>
      <trkpt lat="44.22523" lon="6.65425">
        <ele>2117.6</ele>
        <time>2022-07-13T08:22:32Z</time>
      </trkpt>
      <trkpt lat="44.22515" lon="6.65433">
        <ele>2121.8</ele>
        <time>2022-07-13T08:22:48Z</time>
      </trkpt>
      <trkpt lat="44.2251" lon="6.65421">
        <ele>2120.4</ele>
        <time>2022-07-13T08:22:59Z</time>
      </trkpt>
      <trkpt lat="44.22504" lon="6.65432">
        <ele>2124.1</ele>
        <time>2022-07-13T08:23:19Z</time>
      </trkpt>
      <trkpt lat="44.22495" lon="6.65435">
        <ele>2125.3</ele>
        <time>2022-07-13T08:23:45Z</time>
      </trkpt>
      <trkpt lat="44.22486" lon="6.65434">
        <ele>2124.8</ele>
        <time>2022-07-13T08:24:01Z</time>
      </trkpt>
      <trkpt lat="44.22488" lon="6.65446">
        <ele>2125.6</ele>
        <time>2022-07-13T08:30:29Z</time>
      </trkpt>
      <trkpt lat="44.22493" lon="6.65459">
        <ele>2128.3</ele>
        <time>2022-07-13T08:30:39Z</time>
      </trkpt>
      <trkpt lat="44.22497" lon="6.6547">
        <ele>2132.1</ele>
        <time>2022-07-13T08:30:52Z</time>
      </trkpt>
      <trkpt lat="44.22501" lon="6.65482">
        <ele>2135.8</ele>
        <time>2022-07-13T08:31:07Z</time>
      </trkpt>
      <trkpt lat="44.22509" lon="6.65489">
        <ele>2138.5</ele>
        <time>2022-07-13T08:31:23Z</time>
      </trkpt>
      <trkpt lat="44.22515" lon="6.65497">
        <ele>2142.4</ele>
        <time>2022-07-13T08:31:39Z</time>
      </trkpt>
      <trkpt lat="44.22507" lon="6.65502">
        <ele>2141.3</ele>
        <time>2022-07-13T08:31:53Z</time>
      </trkpt>
      <trkpt lat="44.2251" lon="6.65514">
        <ele>2144.9</ele>
        <time>2022-07-13T08:32:08Z</time>
      </trkpt>
      <trkpt lat="44.22519" lon="6.65516">
        <ele>2149.6</ele>
        <time>2022-07-13T08:32:22Z</time>
      </trkpt>
      <trkpt lat="44.22528" lon="6.65513">
        <ele>2152.2</ele>
        <time>2022-07-13T08:32:37Z</time>
      </trkpt>
      <trkpt lat="44.22538" lon="6.65515">
        <ele>2154.3</ele>
        <time>2022-07-13T08:32:50Z</time>
      </trkpt>
      <trkpt lat="44.22547" lon="6.65518">
        <ele>2157</ele>
        <time>2022-07-13T08:33:03Z</time>
      </trkpt>
      <trkpt lat="44.22556" lon="6.65519">
        <ele>2158.7</ele>
        <time>2022-07-13T08:33:16Z</time>
      </trkpt>
      <trkpt lat="44.22565" lon="6.65523">
        <ele>2159.5</ele>
        <time>2022-07-13T08:33:32Z</time>
      </trkpt>
      <trkpt lat="44.22569" lon="6.65535">
        <ele>2163.6</ele>
        <time>2022-07-13T08:34:01Z</time>
      </trkpt>
      <trkpt lat="44.22573" lon="6.65547">
        <ele>2167</ele>
        <time>2022-07-13T08:34:15Z</time>
      </trkpt>
      <trkpt lat="44.22579" lon="6.65556">
        <ele>2168.1</ele>
        <time>2022-07-13T08:34:28Z</time>
      </trkpt>
      <trkpt lat="44.22571" lon="6.65561">
        <ele>2171.1</ele>
        <time>2022-07-13T08:34:52Z</time>
      </trkpt>
      <trkpt lat="44.22562" lon="6.65556">
        <ele>2172.4</ele>
        <time>2022-07-13T08:35:01Z</time>
      </trkpt>
      <trkpt lat="44.22562" lon="6.65568">
        <ele>2175.4</ele>
        <time>2022-07-13T08:35:15Z</time>
      </trkpt>
      <trkpt lat="44.22565" lon="6.65581">
        <ele>2177</ele>
        <time>2022-07-13T08:35:28Z</time>
      </trkpt>
      <trkpt lat="44.22556" lon="6.65577">
        <ele>2180</ele>
        <time>2022-07-13T08:35:44Z</time>
      </trkpt>
      <trkpt lat="44.22547" lon="6.65575">
        <ele>2177.8</ele>
        <time>2022-07-13T08:35:58Z</time>
      </trkpt>
      <trkpt lat="44.22547" lon="6.65589">
        <ele>2180.6</ele>
        <time>2022-07-13T08:36:12Z</time>
      </trkpt>
      <trkpt lat="44.22547" lon="6.65602">
        <ele>2181.7</ele>
        <time>2022-07-13T08:36:26Z</time>
      </trkpt>
      <trkpt lat="44.22544" lon="6.65614">
        <ele>2182.6</ele>
        <time>2022-07-13T08:36:38Z</time>
      </trkpt>
      <trkpt lat="44.22543" lon="6.65627">
        <ele>2184.7</ele>
        <time>2022-07-13T08:36:50Z</time>
      </trkpt>
      <trkpt lat="44.22537" lon="6.65637">
        <ele>2187.6</ele>
        <time>2022-07-13T08:37:04Z</time>
      </trkpt>
      <trkpt lat="44.22535" lon="6.6565">
        <ele>2190.8</ele>
        <time>2022-07-13T08:37:23Z</time>
      </trkpt>
      <trkpt lat="44.22531" lon="6.65662">
        <ele>2195.3</ele>
        <time>2022-07-13T08:37:39Z</time>
      </trkpt>
      <trkpt lat="44.22526" lon="6.65673">
        <ele>2197.8</ele>
        <time>2022-07-13T08:37:53Z</time>
      </trkpt>
      <trkpt lat="44.22521" lon="6.65684">
        <ele>2197.7</ele>
        <time>2022-07-13T08:38:07Z</time>
      </trkpt>
      <trkpt lat="44.22517" lon="6.65697">
        <ele>2198.5</ele>
        <time>2022-07-13T08:38:18Z</time>
      </trkpt>
      <trkpt lat="44.22515" lon="6.6571">
        <ele>2199.4</ele>
        <time>2022-07-13T08:38:30Z</time>
      </trkpt>
      <trkpt lat="44.22514" lon="6.65724">
        <ele>2200.4</ele>
        <time>2022-07-13T08:38:41Z</time>
      </trkpt>
      <trkpt lat="44.22512" lon="6.65737">
        <ele>2200.4</ele>
        <time>2022-07-13T08:38:47Z</time>
      </trkpt>
      <trkpt lat="44.22507" lon="6.65747">
        <ele>2201.4</ele>
        <time>2022-07-13T08:38:55Z</time>
      </trkpt>
      <trkpt lat="44.22501" lon="6.65758">
        <ele>2202</ele>
        <time>2022-07-13T08:39:03Z</time>
      </trkpt>
      <trkpt lat="44.22496" lon="6.65768">
        <ele>2201.2</ele>
        <time>2022-07-13T08:39:10Z</time>
      </trkpt>
      <trkpt lat="44.2249" lon="6.65778">
        <ele>2201.7</ele>
        <time>2022-07-13T08:39:17Z</time>
      </trkpt>
      <trkpt lat="44.22484" lon="6.65786">
        <ele>2202.2</ele>
        <time>2022-07-13T08:39:26Z</time>
      </trkpt>
      <trkpt lat="44.22475" lon="6.65794">
        <ele>2204.5</ele>
        <time>2022-07-13T08:39:36Z</time>
      </trkpt>
      <trkpt lat="44.22468" lon="6.65803">
        <ele>2206.1</ele>
        <time>2022-07-13T08:39:45Z</time>
      </trkpt>
      <trkpt lat="44.22462" lon="6.65812">
        <ele>2206.6</ele>
        <time>2022-07-13T08:39:53Z</time>
      </trkpt>
      <trkpt lat="44.22455" lon="6.65819">
        <ele>2208.4</ele>
        <time>2022-07-13T08:40:03Z</time>
      </trkpt>
      <trkpt lat="44.22448" lon="6.65828">
        <ele>2212.6</ele>
        <time>2022-07-13T08:40:16Z</time>
      </trkpt>
      <trkpt lat="44.22441" lon="6.65838">
        <ele>2216.1</ele>
        <time>2022-07-13T08:40:28Z</time>
      </trkpt>
      <trkpt lat="44.22436" lon="6.6585">
        <ele>2216.9</ele>
        <time>2022-07-13T08:40:38Z</time>
      </trkpt>
      <trkpt lat="44.22432" lon="6.65861">
        <ele>2218.9</ele>
        <time>2022-07-13T08:40:50Z</time>
      </trkpt>
      <trkpt lat="44.22429" lon="6.65874">
        <ele>2219.9</ele>
        <time>2022-07-13T08:41:01Z</time>
      </trkpt>
      <trkpt lat="44.22424" lon="6.65886">
        <ele>2222.5</ele>
        <time>2022-07-13T08:41:13Z</time>
      </trkpt>
      <trkpt lat="44.22419" lon="6.65897">
        <ele>2224.6</ele>
        <time>2022-07-13T08:41:27Z</time>
      </trkpt>
      <trkpt lat="44.2241" lon="6.65892">
        <ele>2230.2</ele>
        <time>2022-07-13T08:41:41Z</time>
      </trkpt>
      <trkpt lat="44.22405" lon="6.65903">
        <ele>2230.6</ele>
        <time>2022-07-13T08:41:54Z</time>
      </trkpt>
      <trkpt lat="44.224" lon="6.65914">
        <ele>2230.7</ele>
        <time>2022-07-13T08:42:05Z</time>
      </trkpt>
      <trkpt lat="44.22393" lon="6.65921">
        <ele>2231.8</ele>
        <time>2022-07-13T08:42:15Z</time>
      </trkpt>
      <trkpt lat="44.22384" lon="6.65922">
        <ele>2234.9</ele>
        <time>2022-07-13T08:42:28Z</time>
      </trkpt>
      <trkpt lat="44.22377" lon="6.65912">
        <ele>2239.3</ele>
        <time>2022-07-13T08:42:44Z</time>
      </trkpt>
      <trkpt lat="44.22379" lon="6.65899">
        <ele>2240.5</ele>
        <time>2022-07-13T08:42:55Z</time>
      </trkpt>
      <trkpt lat="44.22375" lon="6.65887">
        <ele>2241.8</ele>
        <time>2022-07-13T08:43:07Z</time>
      </trkpt>
      <trkpt lat="44.22365" lon="6.65889">
        <ele>2244.1</ele>
        <time>2022-07-13T08:43:19Z</time>
      </trkpt>
      <trkpt lat="44.22355" lon="6.65889">
        <ele>2246.2</ele>
        <time>2022-07-13T08:43:31Z</time>
      </trkpt>
      <trkpt lat="44.22346" lon="6.65892">
        <ele>2248.4</ele>
        <time>2022-07-13T08:43:45Z</time>
      </trkpt>
      <trkpt lat="44.22337" lon="6.65892">
        <ele>2250.6</ele>
        <time>2022-07-13T08:43:58Z</time>
      </trkpt>
      <trkpt lat="44.22327" lon="6.65891">
        <ele>2252.5</ele>
        <time>2022-07-13T08:44:10Z</time>
      </trkpt>
      <trkpt lat="44.2232" lon="6.65899">
        <ele>2255.6</ele>
        <time>2022-07-13T08:44:24Z</time>
      </trkpt>
      <trkpt lat="44.22315" lon="6.6591">
        <ele>2259.7</ele>
        <time>2022-07-13T08:44:40Z</time>
      </trkpt>
      <trkpt lat="44.22307" lon="6.65917">
        <ele>2264.3</ele>
        <time>2022-07-13T08:44:57Z</time>
      </trkpt>
      <trkpt lat="44.22299" lon="6.65919">
        <ele>2266.2</ele>
        <time>2022-07-13T08:45:14Z</time>
      </trkpt>
      <trkpt lat="44.22291" lon="6.65926">
        <ele>2268.6</ele>
        <time>2022-07-13T08:45:36Z</time>
      </trkpt>
      <trkpt lat="44.22283" lon="6.65934">
        <ele>2271.9</ele>
        <time>2022-07-13T08:45:52Z</time>
      </trkpt>
      <trkpt lat="44.22275" lon="6.6594">
        <ele>2275</ele>
        <time>2022-07-13T08:46:08Z</time>
      </trkpt>
      <trkpt lat="44.22267" lon="6.65946">
        <ele>2277.5</ele>
        <time>2022-07-13T08:46:23Z</time>
      </trkpt>
      <trkpt lat="44.2226" lon="6.65955">
        <ele>2280.6</ele>
        <time>2022-07-13T08:47:07Z</time>
      </trkpt>
      <trkpt lat="44.22252" lon="6.6596">
        <ele>2284.5</ele>
        <time>2022-07-13T08:47:29Z</time>
      </trkpt>
      <trkpt lat="44.22247" lon="6.65971">
        <ele>2290.2</ele>
        <time>2022-07-13T08:48:21Z</time>
      </trkpt>
      <trkpt lat="44.22241" lon="6.65981">
        <ele>2293.7</ele>
        <time>2022-07-13T08:48:34Z</time>
      </trkpt>
      <trkpt lat="44.22235" lon="6.65989">
        <ele>2298.1</ele>
        <time>2022-07-13T08:48:51Z</time>
      </trkpt>
      <trkpt lat="44.22228" lon="6.65997">
        <ele>2303.9</ele>
        <time>2022-07-13T08:49:10Z</time>
      </trkpt>
      <trkpt lat="44.22221" lon="6.66007">
        <ele>2309.7</ele>
        <time>2022-07-13T08:49:41Z</time>
      </trkpt>
      <trkpt lat="44.22213" lon="6.66002">
        <ele>2317.3</ele>
        <time>2022-07-13T08:50:01Z</time>
      </trkpt>
      <trkpt lat="44.22211" lon="6.66015">
        <ele>2320.2</ele>
        <time>2022-07-13T08:50:18Z</time>
      </trkpt>
      <trkpt lat="44.22208" lon="6.66027">
        <ele>2323.9</ele>
        <time>2022-07-13T08:50:32Z</time>
      </trkpt>
      <trkpt lat="44.22204" lon="6.6604">
        <ele>2326.2</ele>
        <time>2022-07-13T08:50:46Z</time>
      </trkpt>
      <trkpt lat="44.22201" lon="6.66052">
        <ele>2327.8</ele>
        <time>2022-07-13T08:50:58Z</time>
      </trkpt>
      <trkpt lat="44.22197" lon="6.66063">
        <ele>2330.7</ele>
        <time>2022-07-13T08:51:18Z</time>
      </trkpt>
      <trkpt lat="44.22194" lon="6.66075">
        <ele>2332.8</ele>
        <time>2022-07-13T08:51:43Z</time>
      </trkpt>
      <trkpt lat="44.22189" lon="6.66087">
        <ele>2335.5</ele>
        <time>2022-07-13T08:51:59Z</time>
      </trkpt>
      <trkpt lat="44.22185" lon="6.66098">
        <ele>2336.1</ele>
        <time>2022-07-13T08:52:16Z</time>
      </trkpt>
      <trkpt lat="44.2218" lon="6.66108">
        <ele>2337.4</ele>
        <time>2022-07-13T08:52:33Z</time>
      </trkpt>
      <trkpt lat="44.22172" lon="6.66116">
        <ele>2340.4</ele>
        <time>2022-07-13T08:52:49Z</time>
      </trkpt>
      <trkpt lat="44.22164" lon="6.66123">
        <ele>2343.1</ele>
        <time>2022-07-13T08:53:00Z</time>
      </trkpt>
      <trkpt lat="44.22156" lon="6.66129">
        <ele>2345.8</ele>
        <time>2022-07-13T08:53:20Z</time>
      </trkpt>
      <trkpt lat="44.22154" lon="6.66116">
        <ele>2350.8</ele>
        <time>2022-07-13T08:53:43Z</time>
      </trkpt>
      <trkpt lat="44.2215" lon="6.66104">
        <ele>2357.2</ele>
        <time>2022-07-13T08:54:15Z</time>
      </trkpt>
      <trkpt lat="44.22141" lon="6.66104">
        <ele>2362.7</ele>
        <time>2022-07-13T08:54:54Z</time>
      </trkpt>
      <trkpt lat="44.22136" lon="6.66093">
        <ele>2369.4</ele>
        <time>2022-07-13T08:55:19Z</time>
      </trkpt>
      <trkpt lat="44.22127" lon="6.6609">
        <ele>2374.2</ele>
        <time>2022-07-13T08:55:57Z</time>
      </trkpt>
      <trkpt lat="44.22121" lon="6.6608">
        <ele>2378.8</ele>
        <time>2022-07-13T08:56:23Z</time>
      </trkpt>
      <trkpt lat="44.22111" lon="6.66078">
        <ele>2382.1</ele>
        <time>2022-07-13T08:56:45Z</time>
      </trkpt>
      <trkpt lat="44.22103" lon="6.66074">
        <ele>2383.4</ele>
        <time>2022-07-13T08:57:01Z</time>
      </trkpt>
      <trkpt lat="44.22097" lon="6.66063">
        <ele>2383.3</ele>
        <time>2022-07-13T08:57:20Z</time>
      </trkpt>
      <trkpt lat="44.22103" lon="6.66053">
        <ele>2384.5</ele>
        <time>2022-07-13T08:57:37Z</time>
      </trkpt>
      <trkpt lat="44.22103" lon="6.6604">
        <ele>2384.7</ele>
        <time>2022-07-13T08:57:56Z</time>
      </trkpt>
      <trkpt lat="44.22111" lon="6.66032">
        <ele>2389.3</ele>
        <time>2022-07-13T08:58:15Z</time>
      </trkpt>
      <trkpt lat="44.22119" lon="6.66026">
        <ele>2392.1</ele>
        <time>2022-07-13T08:58:35Z</time>
      </trkpt>
      <trkpt lat="44.22124" lon="6.66015">
        <ele>2393.1</ele>
        <time>2022-07-13T08:58:54Z</time>
      </trkpt>
      <trkpt lat="44.22132" lon="6.66009">
        <ele>2397.4</ele>
        <time>2022-07-13T08:59:13Z</time>
      </trkpt>
      <trkpt lat="44.22141" lon="6.66006">
        <ele>2401.1</ele>
        <time>2022-07-13T08:59:33Z</time>
      </trkpt>
      <trkpt lat="44.22149" lon="6.66">
        <ele>2398.5</ele>
        <time>2022-07-13T08:59:55Z</time>
      </trkpt>
      <trkpt lat="44.22152" lon="6.65988">
        <ele>2380.9</ele>
        <time>2022-07-13T09:00:53Z</time>
      </trkpt>
      <trkpt lat="44.22149" lon="6.66">
        <ele>2398.5</ele>
        <time>2022-07-13T09:04:31Z</time>
      </trkpt>
      <trkpt lat="44.22142" lon="6.66008">
        <ele>2400.3</ele>
        <time>2022-07-13T09:04:43Z</time>
      </trkpt>
      <trkpt lat="44.22135" lon="6.66016">
        <ele>2398.2</ele>
        <time>2022-07-13T09:04:55Z</time>
      </trkpt>
      <trkpt lat="44.22126" lon="6.66021">
        <ele>2394.4</ele>
        <time>2022-07-13T09:05:09Z</time>
      </trkpt>
      <trkpt lat="44.22121" lon="6.66031">
        <ele>2392</ele>
        <time>2022-07-13T09:05:26Z</time>
      </trkpt>
      <trkpt lat="44.22112" lon="6.66035">
        <ele>2389.5</ele>
        <time>2022-07-13T09:05:41Z</time>
      </trkpt>
      <trkpt lat="44.22106" lon="6.66044">
        <ele>2386</ele>
        <time>2022-07-13T09:06:01Z</time>
      </trkpt>
      <trkpt lat="44.22103" lon="6.66057">
        <ele>2384.6</ele>
        <time>2022-07-13T09:06:23Z</time>
      </trkpt>
      <trkpt lat="44.22097" lon="6.66067">
        <ele>2383.4</ele>
        <time>2022-07-13T09:06:50Z</time>
      </trkpt>
      <trkpt lat="44.22091" lon="6.66076">
        <ele>2384.3</ele>
        <time>2022-07-13T09:07:17Z</time>
      </trkpt>
      <trkpt lat="44.22091" lon="6.6609">
        <ele>2386.1</ele>
        <time>2022-07-13T09:07:27Z</time>
      </trkpt>
      <trkpt lat="44.22093" lon="6.66102">
        <ele>2386.7</ele>
        <time>2022-07-13T09:07:39Z</time>
      </trkpt>
      <trkpt lat="44.22089" lon="6.66114">
        <ele>2389.1</ele>
        <time>2022-07-13T09:08:14Z</time>
      </trkpt>
      <trkpt lat="44.22092" lon="6.66126">
        <ele>2385.5</ele>
        <time>2022-07-13T09:08:30Z</time>
      </trkpt>
      <trkpt lat="44.22089" lon="6.66138">
        <ele>2386</ele>
        <time>2022-07-13T09:08:42Z</time>
      </trkpt>
      <trkpt lat="44.22085" lon="6.6615">
        <ele>2385.2</ele>
        <time>2022-07-13T09:09:01Z</time>
      </trkpt>
      <trkpt lat="44.22085" lon="6.66162">
        <ele>2381.5</ele>
        <time>2022-07-13T09:09:30Z</time>
      </trkpt>
      <trkpt lat="44.22086" lon="6.66175">
        <ele>2377.6</ele>
        <time>2022-07-13T09:10:04Z</time>
      </trkpt>
      <trkpt lat="44.22082" lon="6.66187">
        <ele>2378.6</ele>
        <time>2022-07-13T09:10:17Z</time>
      </trkpt>
      <trkpt lat="44.22079" lon="6.66199">
        <ele>2379.1</ele>
        <time>2022-07-13T09:10:30Z</time>
      </trkpt>
      <trkpt lat="44.2208" lon="6.66212">
        <ele>2377.4</ele>
        <time>2022-07-13T09:10:46Z</time>
      </trkpt>
      <trkpt lat="44.22076" lon="6.66224">
        <ele>2380.7</ele>
        <time>2022-07-13T09:11:04Z</time>
      </trkpt>
      <trkpt lat="44.22076" lon="6.66236">
        <ele>2379.4</ele>
        <time>2022-07-13T09:11:19Z</time>
      </trkpt>
      <trkpt lat="44.22074" lon="6.66249">
        <ele>2380.4</ele>
        <time>2022-07-13T09:11:39Z</time>
      </trkpt>
      <trkpt lat="44.22071" lon="6.66261">
        <ele>2381.9</ele>
        <time>2022-07-13T09:11:54Z</time>
      </trkpt>
      <trkpt lat="44.22069" lon="6.66274">
        <ele>2382.4</ele>
        <time>2022-07-13T09:12:17Z</time>
      </trkpt>
      <trkpt lat="44.22072" lon="6.66286">
        <ele>2377.8</ele>
        <time>2022-07-13T09:12:38Z</time>
      </trkpt>
      <trkpt lat="44.22069" lon="6.66298">
        <ele>2378</ele>
        <time>2022-07-13T09:12:57Z</time>
      </trkpt>
      <trkpt lat="44.22067" lon="6.66311">
        <ele>2378.3</ele>
        <time>2022-07-13T09:13:10Z</time>
      </trkpt>
      <trkpt lat="44.22062" lon="6.66321">
        <ele>2382.3</ele>
        <time>2022-07-13T09:13:25Z</time>
      </trkpt>
      <trkpt lat="44.22056" lon="6.66332">
        <ele>2386.6</ele>
        <time>2022-07-13T09:13:39Z</time>
      </trkpt>
      <trkpt lat="44.22058" lon="6.66345">
        <ele>2385.9</ele>
        <time>2022-07-13T09:13:56Z</time>
      </trkpt>
      <trkpt lat="44.22059" lon="6.66358">
        <ele>2386.3</ele>
        <time>2022-07-13T09:14:12Z</time>
      </trkpt>
      <trkpt lat="44.22057" lon="6.66371">
        <ele>2391.7</ele>
        <time>2022-07-13T09:14:27Z</time>
      </trkpt>
      <trkpt lat="44.22055" lon="6.66383">
        <ele>2399.2</ele>
        <time>2022-07-13T09:14:48Z</time>
      </trkpt>
      <trkpt lat="44.22056" lon="6.66396">
        <ele>2401.3</ele>
        <time>2022-07-13T09:15:12Z</time>
      </trkpt>
      <trkpt lat="44.22058" lon="6.66408">
        <ele>2401.4</ele>
        <time>2022-07-13T09:15:33Z</time>
      </trkpt>
      <trkpt lat="44.22053" lon="6.66419">
        <ele>2411</ele>
        <time>2022-07-13T09:15:51Z</time>
      </trkpt>
      <trkpt lat="44.22049" lon="6.66431">
        <ele>2419.3</ele>
        <time>2022-07-13T09:16:06Z</time>
      </trkpt>
      <trkpt lat="44.2205" lon="6.66444">
        <ele>2419.4</ele>
        <time>2022-07-13T09:17:56Z</time>
      </trkpt>
      <trkpt lat="44.22047" lon="6.66456">
        <ele>2423.3</ele>
        <time>2022-07-13T09:20:03Z</time>
      </trkpt>
      <trkpt lat="44.22049" lon="6.66469">
        <ele>2420.7</ele>
        <time>2022-07-13T09:20:17Z</time>
      </trkpt>
      <trkpt lat="44.22049" lon="6.66482">
        <ele>2418.6</ele>
        <time>2022-07-13T09:20:48Z</time>
      </trkpt>
      <trkpt lat="44.2205" lon="6.66495">
        <ele>2414.7</ele>
        <time>2022-07-13T09:21:02Z</time>
      </trkpt>
      <trkpt lat="44.22051" lon="6.66508">
        <ele>2412.6</ele>
        <time>2022-07-13T09:21:15Z</time>
      </trkpt>
      <trkpt lat="44.22047" lon="6.6652">
        <ele>2412.9</ele>
        <time>2022-07-13T09:21:25Z</time>
      </trkpt>
      <trkpt lat="44.22044" lon="6.66532">
        <ele>2411.5</ele>
        <time>2022-07-13T09:21:37Z</time>
      </trkpt>
      <trkpt lat="44.22044" lon="6.66545">
        <ele>2408.8</ele>
        <time>2022-07-13T09:21:47Z</time>
      </trkpt>
      <trkpt lat="44.22051" lon="6.66552">
        <ele>2408.3</ele>
        <time>2022-07-13T09:22:07Z</time>
      </trkpt>
      <trkpt lat="44.22055" lon="6.66564">
        <ele>2408.3</ele>
        <time>2022-07-13T09:22:18Z</time>
      </trkpt>
      <trkpt lat="44.2206" lon="6.66575">
        <ele>2406.8</ele>
        <time>2022-07-13T09:22:27Z</time>
      </trkpt>
      <trkpt lat="44.22066" lon="6.66585">
        <ele>2406.6</ele>
        <time>2022-07-13T09:22:37Z</time>
      </trkpt>
      <trkpt lat="44.22072" lon="6.66594">
        <ele>2409.2</ele>
        <time>2022-07-13T09:22:47Z</time>
      </trkpt>
      <trkpt lat="44.22077" lon="6.66606">
        <ele>2412.7</ele>
        <time>2022-07-13T09:22:58Z</time>
      </trkpt>
      <trkpt lat="44.22082" lon="6.66618">
        <ele>2416.5</ele>
        <time>2022-07-13T09:23:11Z</time>
      </trkpt>
      <trkpt lat="44.22088" lon="6.66627">
        <ele>2417.6</ele>
        <time>2022-07-13T09:23:34Z</time>
      </trkpt>
      <trkpt lat="44.2209" lon="6.6664">
        <ele>2420.6</ele>
        <time>2022-07-13T09:24:15Z</time>
      </trkpt>
      <trkpt lat="44.22095" lon="6.66651">
        <ele>2421.6</ele>
        <time>2022-07-13T09:24:32Z</time>
      </trkpt>
      <trkpt lat="44.22099" lon="6.66663">
        <ele>2423.7</ele>
        <time>2022-07-13T09:24:53Z</time>
      </trkpt>
      <trkpt lat="44.22106" lon="6.66671">
        <ele>2425.4</ele>
        <time>2022-07-13T09:25:16Z</time>
      </trkpt>
      <trkpt lat="44.22111" lon="6.66683">
        <ele>2428.4</ele>
        <time>2022-07-13T09:25:47Z</time>
      </trkpt>
      <trkpt lat="44.22117" lon="6.66693">
        <ele>2429.9</ele>
        <time>2022-07-13T09:26:04Z</time>
      </trkpt>
      <trkpt lat="44.22125" lon="6.667">
        <ele>2431.1</ele>
        <time>2022-07-13T09:26:19Z</time>
      </trkpt>
      <trkpt lat="44.2213" lon="6.66711">
        <ele>2434.6</ele>
        <time>2022-07-13T09:26:34Z</time>
      </trkpt>
      <trkpt lat="44.22133" lon="6.66723">
        <ele>2439.5</ele>
        <time>2022-07-13T09:27:00Z</time>
      </trkpt>
      <trkpt lat="44.22138" lon="6.66734">
        <ele>2444.5</ele>
        <time>2022-07-13T09:27:13Z</time>
      </trkpt>
      <trkpt lat="44.22142" lon="6.66746">
        <ele>2448.3</ele>
        <time>2022-07-13T09:27:23Z</time>
      </trkpt>
      <trkpt lat="44.22148" lon="6.66756">
        <ele>2449.2</ele>
        <time>2022-07-13T09:27:33Z</time>
      </trkpt>
      <trkpt lat="44.22151" lon="6.66767">
        <ele>2450.9</ele>
        <time>2022-07-13T09:27:57Z</time>
      </trkpt>
      <trkpt lat="44.22155" lon="6.66779">
        <ele>2453.5</ele>
        <time>2022-07-13T09:28:23Z</time>
      </trkpt>
      <trkpt lat="44.2216" lon="6.6679">
        <ele>2456.4</ele>
        <time>2022-07-13T09:28:51Z</time>
      </trkpt>
      <trkpt lat="44.22165" lon="6.66802">
        <ele>2460.3</ele>
        <time>2022-07-13T09:29:07Z</time>
      </trkpt>
      <trkpt lat="44.22167" lon="6.66815">
        <ele>2463.6</ele>
        <time>2022-07-13T09:29:24Z</time>
      </trkpt>
      <trkpt lat="44.22161" lon="6.66823">
        <ele>2461.8</ele>
        <time>2022-07-13T09:29:42Z</time>
      </trkpt>
      <trkpt lat="44.22166" lon="6.66834">
        <ele>2467</ele>
        <time>2022-07-13T09:30:04Z</time>
      </trkpt>
      <trkpt lat="44.22173" lon="6.66843">
        <ele>2469.5</ele>
        <time>2022-07-13T09:30:20Z</time>
      </trkpt>
      <trkpt lat="44.2218" lon="6.66851">
        <ele>2473.4</ele>
        <time>2022-07-13T09:30:40Z</time>
      </trkpt>
      <trkpt lat="44.22184" lon="6.66863">
        <ele>2478.2</ele>
        <time>2022-07-13T09:31:16Z</time>
      </trkpt>
      <trkpt lat="44.22191" lon="6.66872">
        <ele>2482.6</ele>
        <time>2022-07-13T09:31:50Z</time>
      </trkpt>
      <trkpt lat="44.22195" lon="6.66883">
        <ele>2487.5</ele>
        <time>2022-07-13T09:32:24Z</time>
      </trkpt>
      <trkpt lat="44.22201" lon="6.66893">
        <ele>2490.6</ele>
        <time>2022-07-13T09:33:14Z</time>
      </trkpt>
      <trkpt lat="44.22208" lon="6.669">
        <ele>2493.8</ele>
        <time>2022-07-13T09:33:37Z</time>
      </trkpt>
      <trkpt lat="44.22214" lon="6.6691">
        <ele>2498.5</ele>
        <time>2022-07-13T09:34:15Z</time>
      </trkpt>
      <trkpt lat="44.22221" lon="6.66919">
        <ele>2504.5</ele>
        <time>2022-07-13T09:34:36Z</time>
      </trkpt>
      <trkpt lat="44.22221" lon="6.66931">
        <ele>2510.6</ele>
        <time>2022-07-13T09:35:16Z</time>
      </trkpt>
      <trkpt lat="44.22222" lon="6.66944">
        <ele>2517.6</ele>
        <time>2022-07-13T09:35:58Z</time>
      </trkpt>
      <trkpt lat="44.22227" lon="6.66955">
        <ele>2521.1</ele>
        <time>2022-07-13T09:36:53Z</time>
      </trkpt>
      <trkpt lat="44.22233" lon="6.66964">
        <ele>2524.8</ele>
        <time>2022-07-13T09:37:40Z</time>
      </trkpt>
      <trkpt lat="44.22232" lon="6.66977">
        <ele>2529.5</ele>
        <time>2022-07-13T09:38:35Z</time>
      </trkpt>
      <trkpt lat="44.22235" lon="6.66989">
        <ele>2534</ele>
        <time>2022-07-13T09:38:52Z</time>
      </trkpt>
      <trkpt lat="44.22241" lon="6.66999">
        <ele>2539.3</ele>
        <time>2022-07-13T09:39:21Z</time>
      </trkpt>
      <trkpt lat="44.22249" lon="6.67004">
        <ele>2543</ele>
        <time>2022-07-13T10:05:39Z</time>
      </trkpt>
      <trkpt lat="44.22243" lon="6.66995">
        <ele>2538.2</ele>
        <time>2022-07-13T10:08:58Z</time>
      </trkpt>
      <trkpt lat="44.22234" lon="6.6699">
        <ele>2533.9</ele>
        <time>2022-07-13T10:09:19Z</time>
      </trkpt>
      <trkpt lat="44.22229" lon="6.66979">
        <ele>2529.7</ele>
        <time>2022-07-13T10:09:55Z</time>
      </trkpt>
      <trkpt lat="44.22222" lon="6.66972">
        <ele>2526.6</ele>
        <time>2022-07-13T10:10:32Z</time>
      </trkpt>
      <trkpt lat="44.22221" lon="6.66959">
        <ele>2521.8</ele>
        <time>2022-07-13T10:11:08Z</time>
      </trkpt>
      <trkpt lat="44.2222" lon="6.66947">
        <ele>2517.3</ele>
        <time>2022-07-13T10:11:56Z</time>
      </trkpt>
      <trkpt lat="44.22222" lon="6.66934">
        <ele>2512.8</ele>
        <time>2022-07-13T10:13:13Z</time>
      </trkpt>
      <trkpt lat="44.22221" lon="6.66922">
        <ele>2506</ele>
        <time>2022-07-13T10:13:47Z</time>
      </trkpt>
      <trkpt lat="44.22216" lon="6.6691">
        <ele>2499.3</ele>
        <time>2022-07-13T10:14:23Z</time>
      </trkpt>
      <trkpt lat="44.22208" lon="6.66905">
        <ele>2495</ele>
        <time>2022-07-13T10:14:47Z</time>
      </trkpt>
      <trkpt lat="44.22203" lon="6.66895">
        <ele>2491.2</ele>
        <time>2022-07-13T10:15:20Z</time>
      </trkpt>
      <trkpt lat="44.22197" lon="6.66884">
        <ele>2488</ele>
        <time>2022-07-13T10:16:06Z</time>
      </trkpt>
      <trkpt lat="44.22191" lon="6.66874">
        <ele>2483.5</ele>
        <time>2022-07-13T10:16:42Z</time>
      </trkpt>
      <trkpt lat="44.22184" lon="6.66866">
        <ele>2478.6</ele>
        <time>2022-07-13T10:17:06Z</time>
      </trkpt>
      <trkpt lat="44.2218" lon="6.66855">
        <ele>2474.4</ele>
        <time>2022-07-13T10:17:34Z</time>
      </trkpt>
      <trkpt lat="44.22174" lon="6.66845">
        <ele>2470.2</ele>
        <time>2022-07-13T10:18:02Z</time>
      </trkpt>
      <trkpt lat="44.22168" lon="6.66835">
        <ele>2467.4</ele>
        <time>2022-07-13T10:18:42Z</time>
      </trkpt>
      <trkpt lat="44.22163" lon="6.66824">
        <ele>2463.4</ele>
        <time>2022-07-13T10:18:58Z</time>
      </trkpt>
      <trkpt lat="44.22164" lon="6.66811">
        <ele>2461.7</ele>
        <time>2022-07-13T10:19:13Z</time>
      </trkpt>
      <trkpt lat="44.22165" lon="6.66799">
        <ele>2459.6</ele>
        <time>2022-07-13T10:19:39Z</time>
      </trkpt>
      <trkpt lat="44.22161" lon="6.66787">
        <ele>2456.1</ele>
        <time>2022-07-13T10:20:00Z</time>
      </trkpt>
      <trkpt lat="44.22157" lon="6.66776">
        <ele>2453.1</ele>
        <time>2022-07-13T10:20:19Z</time>
      </trkpt>
      <trkpt lat="44.22152" lon="6.66765">
        <ele>2450.5</ele>
        <time>2022-07-13T10:20:44Z</time>
      </trkpt>
      <trkpt lat="44.22145" lon="6.66756">
        <ele>2449.6</ele>
        <time>2022-07-13T10:21:04Z</time>
      </trkpt>
      <trkpt lat="44.22139" lon="6.66747">
        <ele>2449</ele>
        <time>2022-07-13T10:21:17Z</time>
      </trkpt>
      <trkpt lat="44.22139" lon="6.66734">
        <ele>2444.5</ele>
        <time>2022-07-13T10:21:39Z</time>
      </trkpt>
      <trkpt lat="44.22134" lon="6.66723">
        <ele>2439.7</ele>
        <time>2022-07-13T10:21:54Z</time>
      </trkpt>
      <trkpt lat="44.22128" lon="6.66713">
        <ele>2434.8</ele>
        <time>2022-07-13T10:22:22Z</time>
      </trkpt>
      <trkpt lat="44.22122" lon="6.66702">
        <ele>2431.6</ele>
        <time>2022-07-13T10:22:40Z</time>
      </trkpt>
      <trkpt lat="44.22116" lon="6.66692">
        <ele>2429.8</ele>
        <time>2022-07-13T10:23:01Z</time>
      </trkpt>
      <trkpt lat="44.22111" lon="6.66681">
        <ele>2428</ele>
        <time>2022-07-13T10:23:20Z</time>
      </trkpt>
      <trkpt lat="44.22104" lon="6.66673">
        <ele>2425.4</ele>
        <time>2022-07-13T10:23:40Z</time>
      </trkpt>
      <trkpt lat="44.22098" lon="6.66664">
        <ele>2423.9</ele>
        <time>2022-07-13T10:23:57Z</time>
      </trkpt>
      <trkpt lat="44.22093" lon="6.66652">
        <ele>2422</ele>
        <time>2022-07-13T10:24:27Z</time>
      </trkpt>
      <trkpt lat="44.22088" lon="6.66642">
        <ele>2421.2</ele>
        <time>2022-07-13T10:24:45Z</time>
      </trkpt>
      <trkpt lat="44.22082" lon="6.66633">
        <ele>2420.2</ele>
        <time>2022-07-13T10:25:23Z</time>
      </trkpt>
      <trkpt lat="44.22078" lon="6.66621">
        <ele>2416.9</ele>
        <time>2022-07-13T10:25:46Z</time>
      </trkpt>
      <trkpt lat="44.22073" lon="6.66609">
        <ele>2413.5</ele>
        <time>2022-07-13T10:26:10Z</time>
      </trkpt>
      <trkpt lat="44.22068" lon="6.66598">
        <ele>2410.2</ele>
        <time>2022-07-13T10:26:22Z</time>
      </trkpt>
      <trkpt lat="44.22064" lon="6.66587">
        <ele>2407.3</ele>
        <time>2022-07-13T10:26:37Z</time>
      </trkpt>
      <trkpt lat="44.22059" lon="6.66575">
        <ele>2407</ele>
        <time>2022-07-13T10:29:51Z</time>
      </trkpt>
      <trkpt lat="44.22055" lon="6.66562">
        <ele>2408.3</ele>
        <time>2022-07-13T10:30:00Z</time>
      </trkpt>
      <trkpt lat="44.22052" lon="6.6655">
        <ele>2408.6</ele>
        <time>2022-07-13T10:30:10Z</time>
      </trkpt>
      <trkpt lat="44.22048" lon="6.66538">
        <ele>2409.8</ele>
        <time>2022-07-13T10:30:22Z</time>
      </trkpt>
      <trkpt lat="44.22047" lon="6.66525">
        <ele>2411.9</ele>
        <time>2022-07-13T10:30:35Z</time>
      </trkpt>
      <trkpt lat="44.22048" lon="6.66513">
        <ele>2413.5</ele>
        <time>2022-07-13T10:30:48Z</time>
      </trkpt>
      <trkpt lat="44.2205" lon="6.665">
        <ele>2413.6</ele>
        <time>2022-07-13T10:31:05Z</time>
      </trkpt>
      <trkpt lat="44.22051" lon="6.66487">
        <ele>2414.4</ele>
        <time>2022-07-13T10:31:21Z</time>
      </trkpt>
      <trkpt lat="44.22048" lon="6.66475">
        <ele>2420.4</ele>
        <time>2022-07-13T10:31:35Z</time>
      </trkpt>
      <trkpt lat="44.22054" lon="6.66465">
        <ele>2412.3</ele>
        <time>2022-07-13T10:31:57Z</time>
      </trkpt>
      <trkpt lat="44.22052" lon="6.66452">
        <ele>2416.1</ele>
        <time>2022-07-13T10:32:12Z</time>
      </trkpt>
      <trkpt lat="44.22051" lon="6.6644">
        <ele>2416.5</ele>
        <time>2022-07-13T10:32:37Z</time>
      </trkpt>
      <trkpt lat="44.22058" lon="6.66431">
        <ele>2404.8</ele>
        <time>2022-07-13T10:33:06Z</time>
      </trkpt>
      <trkpt lat="44.22059" lon="6.66418">
        <ele>2402.2</ele>
        <time>2022-07-13T10:33:47Z</time>
      </trkpt>
      <trkpt lat="44.22053" lon="6.66409">
        <ele>2409.4</ele>
        <time>2022-07-13T10:33:59Z</time>
      </trkpt>
      <trkpt lat="44.22049" lon="6.66397">
        <ele>2413.6</ele>
        <time>2022-07-13T10:34:12Z</time>
      </trkpt>
      <trkpt lat="44.22046" lon="6.66385">
        <ele>2416.7</ele>
        <time>2022-07-13T10:34:22Z</time>
      </trkpt>
      <trkpt lat="44.22043" lon="6.66373">
        <ele>2414.6</ele>
        <time>2022-07-13T10:34:39Z</time>
      </trkpt>
      <trkpt lat="44.22044" lon="6.6636">
        <ele>2406.8</ele>
        <time>2022-07-13T10:34:50Z</time>
      </trkpt>
      <trkpt lat="44.22038" lon="6.66351">
        <ele>2414.7</ele>
        <time>2022-07-13T10:35:02Z</time>
      </trkpt>
      <trkpt lat="44.22034" lon="6.66339">
        <ele>2415.1</ele>
        <time>2022-07-13T10:35:16Z</time>
      </trkpt>
      <trkpt lat="44.22032" lon="6.66327">
        <ele>2414</ele>
        <time>2022-07-13T10:35:32Z</time>
      </trkpt>
      <trkpt lat="44.22037" lon="6.66315">
        <ele>2408</ele>
        <time>2022-07-13T10:35:52Z</time>
      </trkpt>
      <trkpt lat="44.22041" lon="6.66304">
        <ele>2403.1</ele>
        <time>2022-07-13T10:36:06Z</time>
      </trkpt>
      <trkpt lat="44.22048" lon="6.66296">
        <ele>2397.6</ele>
        <time>2022-07-13T10:36:29Z</time>
      </trkpt>
      <trkpt lat="44.22054" lon="6.66285">
        <ele>2394.8</ele>
        <time>2022-07-13T10:36:44Z</time>
      </trkpt>
      <trkpt lat="44.2206" lon="6.66274">
        <ele>2391.7</ele>
        <time>2022-07-13T10:37:01Z</time>
      </trkpt>
      <trkpt lat="44.22068" lon="6.66267">
        <ele>2384.6</ele>
        <time>2022-07-13T10:37:21Z</time>
      </trkpt>
      <trkpt lat="44.22074" lon="6.66257">
        <ele>2379.6</ele>
        <time>2022-07-13T10:37:38Z</time>
      </trkpt>
      <trkpt lat="44.22082" lon="6.6625">
        <ele>2371.3</ele>
        <time>2022-07-13T10:37:53Z</time>
      </trkpt>
      <trkpt lat="44.22084" lon="6.66238">
        <ele>2371</ele>
        <time>2022-07-13T10:38:16Z</time>
      </trkpt>
      <trkpt lat="44.22087" lon="6.66225">
        <ele>2369.7</ele>
        <time>2022-07-13T10:38:39Z</time>
      </trkpt>
      <trkpt lat="44.22087" lon="6.66212">
        <ele>2370.8</ele>
        <time>2022-07-13T10:38:51Z</time>
      </trkpt>
      <trkpt lat="44.22087" lon="6.66199">
        <ele>2371.5</ele>
        <time>2022-07-13T10:39:04Z</time>
      </trkpt>
      <trkpt lat="44.22095" lon="6.66192">
        <ele>2365.8</ele>
        <time>2022-07-13T10:39:27Z</time>
      </trkpt>
      <trkpt lat="44.22104" lon="6.66188">
        <ele>2359.5</ele>
        <time>2022-07-13T10:39:51Z</time>
      </trkpt>
      <trkpt lat="44.22113" lon="6.66182">
        <ele>2353.6</ele>
        <time>2022-07-13T10:40:07Z</time>
      </trkpt>
      <trkpt lat="44.22115" lon="6.6617">
        <ele>2355.7</ele>
        <time>2022-07-13T10:40:41Z</time>
      </trkpt>
      <trkpt lat="44.22121" lon="6.66159">
        <ele>2355.4</ele>
        <time>2022-07-13T10:40:53Z</time>
      </trkpt>
      <trkpt lat="44.22127" lon="6.6615">
        <ele>2354.7</ele>
        <time>2022-07-13T10:41:05Z</time>
      </trkpt>
      <trkpt lat="44.22134" lon="6.66143">
        <ele>2353.3</ele>
        <time>2022-07-13T10:41:17Z</time>
      </trkpt>
      <trkpt lat="44.22143" lon="6.66138">
        <ele>2350.3</ele>
        <time>2022-07-13T10:41:35Z</time>
      </trkpt>
      <trkpt lat="44.2215" lon="6.66128">
        <ele>2349.6</ele>
        <time>2022-07-13T10:41:56Z</time>
      </trkpt>
      <trkpt lat="44.22157" lon="6.66119">
        <ele>2348.5</ele>
        <time>2022-07-13T10:42:10Z</time>
      </trkpt>
      <trkpt lat="44.22163" lon="6.66109">
        <ele>2347.7</ele>
        <time>2022-07-13T10:45:33Z</time>
      </trkpt>
      <trkpt lat="44.22172" lon="6.66103">
        <ele>2344</ele>
        <time>2022-07-13T10:45:48Z</time>
      </trkpt>
      <trkpt lat="44.2218" lon="6.66096">
        <ele>2340.7</ele>
        <time>2022-07-13T10:45:58Z</time>
      </trkpt>
      <trkpt lat="44.22187" lon="6.66088">
        <ele>2336.9</ele>
        <time>2022-07-13T10:46:10Z</time>
      </trkpt>
      <trkpt lat="44.22194" lon="6.66079">
        <ele>2332.3</ele>
        <time>2022-07-13T10:46:27Z</time>
      </trkpt>
      <trkpt lat="44.22201" lon="6.6607">
        <ele>2327.6</ele>
        <time>2022-07-13T10:46:56Z</time>
      </trkpt>
      <trkpt lat="44.22203" lon="6.66057">
        <ele>2326.1</ele>
        <time>2022-07-13T10:47:09Z</time>
      </trkpt>
      <trkpt lat="44.22206" lon="6.66045">
        <ele>2324.8</ele>
        <time>2022-07-13T10:47:28Z</time>
      </trkpt>
      <trkpt lat="44.22212" lon="6.66036">
        <ele>2319.5</ele>
        <time>2022-07-13T10:47:43Z</time>
      </trkpt>
      <trkpt lat="44.22215" lon="6.66024">
        <ele>2317.5</ele>
        <time>2022-07-13T10:47:55Z</time>
      </trkpt>
      <trkpt lat="44.22219" lon="6.66013">
        <ele>2312.5</ele>
        <time>2022-07-13T10:48:06Z</time>
      </trkpt>
      <trkpt lat="44.22218" lon="6.65999">
        <ele>2311.2</ele>
        <time>2022-07-13T10:48:21Z</time>
      </trkpt>
      <trkpt lat="44.22225" lon="6.66008">
        <ele>2306.9</ele>
        <time>2022-07-13T10:48:32Z</time>
      </trkpt>
      <trkpt lat="44.22231" lon="6.65998">
        <ele>2301.8</ele>
        <time>2022-07-13T10:48:46Z</time>
      </trkpt>
      <trkpt lat="44.22238" lon="6.65989">
        <ele>2296.4</ele>
        <time>2022-07-13T10:49:05Z</time>
      </trkpt>
      <trkpt lat="44.22244" lon="6.65979">
        <ele>2292.5</ele>
        <time>2022-07-13T10:49:40Z</time>
      </trkpt>
      <trkpt lat="44.2225" lon="6.6597">
        <ele>2289</ele>
        <time>2022-07-13T10:49:55Z</time>
      </trkpt>
      <trkpt lat="44.22256" lon="6.6596">
        <ele>2283</ele>
        <time>2022-07-13T10:50:15Z</time>
      </trkpt>
      <trkpt lat="44.22263" lon="6.65951">
        <ele>2278.9</ele>
        <time>2022-07-13T10:50:38Z</time>
      </trkpt>
      <trkpt lat="44.22272" lon="6.65945">
        <ele>2276.7</ele>
        <time>2022-07-13T10:50:54Z</time>
      </trkpt>
      <trkpt lat="44.22279" lon="6.65937">
        <ele>2273.8</ele>
        <time>2022-07-13T10:51:06Z</time>
      </trkpt>
      <trkpt lat="44.22286" lon="6.6593">
        <ele>2270.1</ele>
        <time>2022-07-13T10:51:23Z</time>
      </trkpt>
      <trkpt lat="44.22295" lon="6.65926">
        <ele>2267.6</ele>
        <time>2022-07-13T10:51:36Z</time>
      </trkpt>
      <trkpt lat="44.22303" lon="6.6592">
        <ele>2265.5</ele>
        <time>2022-07-13T10:51:51Z</time>
      </trkpt>
      <trkpt lat="44.22312" lon="6.65914">
        <ele>2261.8</ele>
        <time>2022-07-13T10:52:14Z</time>
      </trkpt>
      <trkpt lat="44.2232" lon="6.65908">
        <ele>2257.5</ele>
        <time>2022-07-13T10:52:32Z</time>
      </trkpt>
      <trkpt lat="44.22325" lon="6.65897">
        <ele>2254</ele>
        <time>2022-07-13T10:52:46Z</time>
      </trkpt>
      <trkpt lat="44.22333" lon="6.65893">
        <ele>2251.4</ele>
        <time>2022-07-13T10:52:57Z</time>
      </trkpt>
      <trkpt lat="44.22343" lon="6.65893">
        <ele>2249.3</ele>
        <time>2022-07-13T10:53:06Z</time>
      </trkpt>
      <trkpt lat="44.22353" lon="6.65893">
        <ele>2246.9</ele>
        <time>2022-07-13T10:53:15Z</time>
      </trkpt>
      <trkpt lat="44.22363" lon="6.65894">
        <ele>2244.4</ele>
        <time>2022-07-13T10:53:25Z</time>
      </trkpt>
      <trkpt lat="44.22373" lon="6.65893">
        <ele>2242.4</ele>
        <time>2022-07-13T10:53:36Z</time>
      </trkpt>
      <trkpt lat="44.22383" lon="6.65891">
        <ele>2240.8</ele>
        <time>2022-07-13T10:53:45Z</time>
      </trkpt>
      <trkpt lat="44.2239" lon="6.65882">
        <ele>2237.1</ele>
        <time>2022-07-13T11:00:44Z</time>
      </trkpt>
      <trkpt lat="44.22397" lon="6.65874">
        <ele>2232.6</ele>
        <time>2022-07-13T11:00:55Z</time>
      </trkpt>
      <trkpt lat="44.22407" lon="6.65871">
        <ele>2229.5</ele>
        <time>2022-07-13T11:01:06Z</time>
      </trkpt>
      <trkpt lat="44.22414" lon="6.65863">
        <ele>2227.4</ele>
        <time>2022-07-13T11:01:20Z</time>
      </trkpt>
      <trkpt lat="44.22415" lon="6.6585">
        <ele>2224.6</ele>
        <time>2022-07-13T11:01:33Z</time>
      </trkpt>
      <trkpt lat="44.22422" lon="6.65841">
        <ele>2221.2</ele>
        <time>2022-07-13T11:01:46Z</time>
      </trkpt>
      <trkpt lat="44.22431" lon="6.65841">
        <ele>2218.6</ele>
        <time>2022-07-13T11:01:59Z</time>
      </trkpt>
      <trkpt lat="44.22441" lon="6.65839">
        <ele>2216.1</ele>
        <time>2022-07-13T11:02:12Z</time>
      </trkpt>
      <trkpt lat="44.22449" lon="6.65832">
        <ele>2213.6</ele>
        <time>2022-07-13T11:02:27Z</time>
      </trkpt>
      <trkpt lat="44.22454" lon="6.65822">
        <ele>2209</ele>
        <time>2022-07-13T11:02:38Z</time>
      </trkpt>
      <trkpt lat="44.22463" lon="6.65816">
        <ele>2206.7</ele>
        <time>2022-07-13T11:02:50Z</time>
      </trkpt>
      <trkpt lat="44.2247" lon="6.65806">
        <ele>2206.8</ele>
        <time>2022-07-13T11:03:00Z</time>
      </trkpt>
      <trkpt lat="44.22478" lon="6.65797">
        <ele>2204.1</ele>
        <time>2022-07-13T11:03:09Z</time>
      </trkpt>
      <trkpt lat="44.22485" lon="6.6579">
        <ele>2201.7</ele>
        <time>2022-07-13T11:03:16Z</time>
      </trkpt>
      <trkpt lat="44.22494" lon="6.65782">
        <ele>2200.9</ele>
        <time>2022-07-13T11:03:24Z</time>
      </trkpt>
      <trkpt lat="44.22501" lon="6.65772">
        <ele>2201.1</ele>
        <time>2022-07-13T11:03:32Z</time>
      </trkpt>
      <trkpt lat="44.22505" lon="6.65761">
        <ele>2200.6</ele>
        <time>2022-07-13T11:03:39Z</time>
      </trkpt>
      <trkpt lat="44.22509" lon="6.65749">
        <ele>2201.1</ele>
        <time>2022-07-13T11:03:48Z</time>
      </trkpt>
      <trkpt lat="44.22513" lon="6.65738">
        <ele>2200.3</ele>
        <time>2022-07-13T11:03:56Z</time>
      </trkpt>
      <trkpt lat="44.22516" lon="6.65725">
        <ele>2200.6</ele>
        <time>2022-07-13T11:04:04Z</time>
      </trkpt>
      <trkpt lat="44.22518" lon="6.65711">
        <ele>2200.1</ele>
        <time>2022-07-13T11:04:12Z</time>
      </trkpt>
      <trkpt lat="44.22519" lon="6.65699">
        <ele>2199.1</ele>
        <time>2022-07-13T11:04:19Z</time>
      </trkpt>
      <trkpt lat="44.22522" lon="6.65686">
        <ele>2198.3</ele>
        <time>2022-07-13T11:04:27Z</time>
      </trkpt>
      <trkpt lat="44.22526" lon="6.65675">
        <ele>2198</ele>
        <time>2022-07-13T11:04:35Z</time>
      </trkpt>
      <trkpt lat="44.22532" lon="6.65664">
        <ele>2195.3</ele>
        <time>2022-07-13T11:04:45Z</time>
      </trkpt>
      <trkpt lat="44.22538" lon="6.65653">
        <ele>2190.5</ele>
        <time>2022-07-13T11:04:57Z</time>
      </trkpt>
      <trkpt lat="44.22541" lon="6.65641">
        <ele>2187.5</ele>
        <time>2022-07-13T11:05:12Z</time>
      </trkpt>
      <trkpt lat="44.22543" lon="6.65628">
        <ele>2185</ele>
        <time>2022-07-13T11:05:24Z</time>
      </trkpt>
      <trkpt lat="44.22549" lon="6.65618">
        <ele>2183.3</ele>
        <time>2022-07-13T11:05:36Z</time>
      </trkpt>
      <trkpt lat="44.22553" lon="6.65606">
        <ele>2182.5</ele>
        <time>2022-07-13T11:05:47Z</time>
      </trkpt>
      <trkpt lat="44.22556" lon="6.65594">
        <ele>2182</ele>
        <time>2022-07-13T11:05:59Z</time>
      </trkpt>
      <trkpt lat="44.22554" lon="6.65581">
        <ele>2180.9</ele>
        <time>2022-07-13T11:06:11Z</time>
      </trkpt>
      <trkpt lat="44.22563" lon="6.6558">
        <ele>2177.4</ele>
        <time>2022-07-13T11:06:28Z</time>
      </trkpt>
      <trkpt lat="44.22572" lon="6.65585">
        <ele>2174.2</ele>
        <time>2022-07-13T11:06:39Z</time>
      </trkpt>
      <trkpt lat="44.22569" lon="6.65573">
        <ele>2173.8</ele>
        <time>2022-07-13T11:06:49Z</time>
      </trkpt>
      <trkpt lat="44.22564" lon="6.65562">
        <ele>2173.2</ele>
        <time>2022-07-13T11:07:01Z</time>
      </trkpt>
      <trkpt lat="44.22574" lon="6.65564">
        <ele>2170.5</ele>
        <time>2022-07-13T11:07:13Z</time>
      </trkpt>
      <trkpt lat="44.22583" lon="6.65569">
        <ele>2168.2</ele>
        <time>2022-07-13T11:07:22Z</time>
      </trkpt>
      <trkpt lat="44.2258" lon="6.65556">
        <ele>2167.9</ele>
        <time>2022-07-13T11:07:33Z</time>
      </trkpt>
      <trkpt lat="44.22575" lon="6.65546">
        <ele>2166.2</ele>
        <time>2022-07-13T11:07:46Z</time>
      </trkpt>
      <trkpt lat="44.2257" lon="6.65535">
        <ele>2163.3</ele>
        <time>2022-07-13T11:07:58Z</time>
      </trkpt>
      <trkpt lat="44.22567" lon="6.65522">
        <ele>2158.9</ele>
        <time>2022-07-13T11:08:19Z</time>
      </trkpt>
      <trkpt lat="44.22559" lon="6.65516">
        <ele>2157.2</ele>
        <time>2022-07-13T11:08:31Z</time>
      </trkpt>
      <trkpt lat="44.22549" lon="6.65511">
        <ele>2154.4</ele>
        <time>2022-07-13T11:08:44Z</time>
      </trkpt>
      <trkpt lat="44.22539" lon="6.65512">
        <ele>2153.2</ele>
        <time>2022-07-13T11:08:55Z</time>
      </trkpt>
      <trkpt lat="44.2253" lon="6.65513">
        <ele>2152.6</ele>
        <time>2022-07-13T11:09:05Z</time>
      </trkpt>
      <trkpt lat="44.22521" lon="6.65514">
        <ele>2149.4</ele>
        <time>2022-07-13T11:09:17Z</time>
      </trkpt>
      <trkpt lat="44.22511" lon="6.65512">
        <ele>2144.8</ele>
        <time>2022-07-13T11:09:33Z</time>
      </trkpt>
      <trkpt lat="44.22511" lon="6.65499">
        <ele>2141.8</ele>
        <time>2022-07-13T11:09:45Z</time>
      </trkpt>
      <trkpt lat="44.22509" lon="6.65486">
        <ele>2138.1</ele>
        <time>2022-07-13T11:10:06Z</time>
      </trkpt>
      <trkpt lat="44.22501" lon="6.6548">
        <ele>2135.5</ele>
        <time>2022-07-13T11:10:18Z</time>
      </trkpt>
      <trkpt lat="44.22499" lon="6.65467">
        <ele>2132.3</ele>
        <time>2022-07-13T11:10:32Z</time>
      </trkpt>
      <trkpt lat="44.22494" lon="6.65455">
        <ele>2128.2</ele>
        <time>2022-07-13T11:10:43Z</time>
      </trkpt>
      <trkpt lat="44.22489" lon="6.65444">
        <ele>2125.4</ele>
        <time>2022-07-13T11:10:54Z</time>
      </trkpt>
      <trkpt lat="44.22485" lon="6.65432">
        <ele>2124.7</ele>
        <time>2022-07-13T11:11:12Z</time>
      </trkpt>
      <trkpt lat="44.22495" lon="6.65433">
        <ele>2125.1</ele>
        <time>2022-07-13T11:11:24Z</time>
      </trkpt>
      <trkpt lat="44.22504" lon="6.65433">
        <ele>2124.5</ele>
        <time>2022-07-13T11:11:35Z</time>
      </trkpt>
      <trkpt lat="44.22512" lon="6.65438">
        <ele>2123.6</ele>
        <time>2022-07-13T11:11:59Z</time>
      </trkpt>
      <trkpt lat="44.22511" lon="6.65424">
        <ele>2120.9</ele>
        <time>2022-07-13T11:12:14Z</time>
      </trkpt>
      <trkpt lat="44.22518" lon="6.65431">
        <ele>2120.7</ele>
        <time>2022-07-13T11:12:27Z</time>
      </trkpt>
      <trkpt lat="44.22526" lon="6.65425">
        <ele>2116.7</ele>
        <time>2022-07-13T11:12:39Z</time>
      </trkpt>
      <trkpt lat="44.22529" lon="6.65413">
        <ele>2111.5</ele>
        <time>2022-07-13T11:12:58Z</time>
      </trkpt>
      <trkpt lat="44.22533" lon="6.65401">
        <ele>2106.3</ele>
        <time>2022-07-13T11:13:33Z</time>
      </trkpt>
      <trkpt lat="44.22541" lon="6.65395">
        <ele>2101.8</ele>
        <time>2022-07-13T11:13:44Z</time>
      </trkpt>
      <trkpt lat="44.2255" lon="6.65393">
        <ele>2098.5</ele>
        <time>2022-07-13T11:13:57Z</time>
      </trkpt>
      <trkpt lat="44.22559" lon="6.65393">
        <ele>2096.8</ele>
        <time>2022-07-13T11:14:41Z</time>
      </trkpt>
      <trkpt lat="44.22567" lon="6.65386">
        <ele>2093.3</ele>
        <time>2022-07-13T11:15:05Z</time>
      </trkpt>
      <trkpt lat="44.22574" lon="6.65378">
        <ele>2088.5</ele>
        <time>2022-07-13T11:15:22Z</time>
      </trkpt>
      <trkpt lat="44.22583" lon="6.65374">
        <ele>2085.4</ele>
        <time>2022-07-13T11:15:35Z</time>
      </trkpt>
      <trkpt lat="44.22592" lon="6.6537">
        <ele>2082.3</ele>
        <time>2022-07-13T11:15:46Z</time>
      </trkpt>
      <trkpt lat="44.22601" lon="6.65366">
        <ele>2078.9</ele>
        <time>2022-07-13T11:15:58Z</time>
      </trkpt>
      <trkpt lat="44.22603" lon="6.65354">
        <ele>2072.2</ele>
        <time>2022-07-13T11:16:13Z</time>
      </trkpt>
      <trkpt lat="44.22594" lon="6.65352">
        <ele>2072.5</ele>
        <time>2022-07-13T11:16:27Z</time>
      </trkpt>
      <trkpt lat="44.22604" lon="6.65352">
        <ele>2071.5</ele>
        <time>2022-07-13T11:16:43Z</time>
      </trkpt>
      <trkpt lat="44.22613" lon="6.65352">
        <ele>2070.2</ele>
        <time>2022-07-13T11:16:52Z</time>
      </trkpt>
      <trkpt lat="44.22622" lon="6.65354">
        <ele>2068.7</ele>
        <time>2022-07-13T11:17:01Z</time>
      </trkpt>
      <trkpt lat="44.22631" lon="6.65358">
        <ele>2068.2</ele>
        <time>2022-07-13T11:17:10Z</time>
      </trkpt>
      <trkpt lat="44.22631" lon="6.65345">
        <ele>2062.5</ele>
        <time>2022-07-13T11:17:32Z</time>
      </trkpt>
      <trkpt lat="44.22626" lon="6.65333">
        <ele>2058.9</ele>
        <time>2022-07-13T11:17:44Z</time>
      </trkpt>
      <trkpt lat="44.22618" lon="6.65326">
        <ele>2057.3</ele>
        <time>2022-07-13T11:17:57Z</time>
      </trkpt>
      <trkpt lat="44.22612" lon="6.65316">
        <ele>2054.1</ele>
        <time>2022-07-13T11:18:12Z</time>
      </trkpt>
      <trkpt lat="44.22606" lon="6.65305">
        <ele>2049.7</ele>
        <time>2022-07-13T11:18:24Z</time>
      </trkpt>
      <trkpt lat="44.22597" lon="6.65308">
        <ele>2050.8</ele>
        <time>2022-07-13T11:18:35Z</time>
      </trkpt>
      <trkpt lat="44.22588" lon="6.65309">
        <ele>2050.9</ele>
        <time>2022-07-13T11:18:47Z</time>
      </trkpt>
      <trkpt lat="44.2258" lon="6.65304">
        <ele>2047.4</ele>
        <time>2022-07-13T11:19:00Z</time>
      </trkpt>
      <trkpt lat="44.22571" lon="6.653">
        <ele>2043.8</ele>
        <time>2022-07-13T11:19:11Z</time>
      </trkpt>
      <trkpt lat="44.22562" lon="6.65298">
        <ele>2041.7</ele>
        <time>2022-07-13T11:19:24Z</time>
      </trkpt>
      <trkpt lat="44.22569" lon="6.6529">
        <ele>2037.7</ele>
        <time>2022-07-13T11:19:38Z</time>
      </trkpt>
      <trkpt lat="44.22563" lon="6.6528">
        <ele>2031.3</ele>
        <time>2022-07-13T11:20:35Z</time>
      </trkpt>
      <trkpt lat="44.22557" lon="6.6527">
        <ele>2026.6</ele>
        <time>2022-07-13T11:20:55Z</time>
      </trkpt>
      <trkpt lat="44.2255" lon="6.65262">
        <ele>2024.1</ele>
        <time>2022-07-13T11:21:11Z</time>
      </trkpt>
      <trkpt lat="44.22543" lon="6.65253">
        <ele>2021.7</ele>
        <time>2022-07-13T11:21:36Z</time>
      </trkpt>
      <trkpt lat="44.22542" lon="6.6524">
        <ele>2016.9</ele>
        <time>2022-07-13T11:22:00Z</time>
      </trkpt>
      <trkpt lat="44.22537" lon="6.65228">
        <ele>2013.9</ele>
        <time>2022-07-13T11:22:12Z</time>
      </trkpt>
      <trkpt lat="44.22532" lon="6.65217">
        <ele>2011.7</ele>
        <time>2022-07-13T11:22:28Z</time>
      </trkpt>
      <trkpt lat="44.22537" lon="6.65206">
        <ele>2007.8</ele>
        <time>2022-07-13T11:22:49Z</time>
      </trkpt>
      <trkpt lat="44.22546" lon="6.652">
        <ele>2003.8</ele>
        <time>2022-07-13T11:23:01Z</time>
      </trkpt>
      <trkpt lat="44.22548" lon="6.65187">
        <ele>2000.6</ele>
        <time>2022-07-13T11:23:13Z</time>
      </trkpt>
      <trkpt lat="44.22544" lon="6.65175">
        <ele>1999.5</ele>
        <time>2022-07-13T11:23:23Z</time>
      </trkpt>
      <trkpt lat="44.22548" lon="6.65164">
        <ele>1996.4</ele>
        <time>2022-07-13T11:23:38Z</time>
      </trkpt>
      <trkpt lat="44.22551" lon="6.65151">
        <ele>1993.7</ele>
        <time>2022-07-13T11:23:52Z</time>
      </trkpt>
      <trkpt lat="44.22554" lon="6.65138">
        <ele>1991.2</ele>
        <time>2022-07-13T11:24:06Z</time>
      </trkpt>
      <trkpt lat="44.22562" lon="6.65133">
        <ele>1988.2</ele>
        <time>2022-07-13T11:24:16Z</time>
      </trkpt>
      <trkpt lat="44.22571" lon="6.65127">
        <ele>1984.9</ele>
        <time>2022-07-13T11:24:41Z</time>
      </trkpt>
      <trkpt lat="44.2258" lon="6.65123">
        <ele>1981.8</ele>
        <time>2022-07-13T11:24:50Z</time>
      </trkpt>
      <trkpt lat="44.22587" lon="6.65115">
        <ele>1979</ele>
        <time>2022-07-13T11:24:59Z</time>
      </trkpt>
      <trkpt lat="44.22596" lon="6.65109">
        <ele>1976.1</ele>
        <time>2022-07-13T11:25:09Z</time>
      </trkpt>
      <trkpt lat="44.22605" lon="6.65107">
        <ele>1973.4</ele>
        <time>2022-07-13T11:25:17Z</time>
      </trkpt>
      <trkpt lat="44.22614" lon="6.65106">
        <ele>1970.6</ele>
        <time>2022-07-13T11:25:28Z</time>
      </trkpt>
      <trkpt lat="44.22618" lon="6.65117">
        <ele>1968.9</ele>
        <time>2022-07-13T11:25:50Z</time>
      </trkpt>
      <trkpt lat="44.22615" lon="6.6513">
        <ele>1970.3</ele>
        <time>2022-07-13T11:25:58Z</time>
      </trkpt>
      <trkpt lat="44.22611" lon="6.65142">
        <ele>1972.7</ele>
        <time>2022-07-13T11:26:07Z</time>
      </trkpt>
      <trkpt lat="44.22619" lon="6.65148">
        <ele>1971.3</ele>
        <time>2022-07-13T11:26:30Z</time>
      </trkpt>
      <trkpt lat="44.22629" lon="6.6515">
        <ele>1969</ele>
        <time>2022-07-13T11:26:49Z</time>
      </trkpt>
      <trkpt lat="44.22638" lon="6.6515">
        <ele>1966.1</ele>
        <time>2022-07-13T11:26:59Z</time>
      </trkpt>
      <trkpt lat="44.22644" lon="6.65159">
        <ele>1966.8</ele>
        <time>2022-07-13T11:27:09Z</time>
      </trkpt>
      <trkpt lat="44.22649" lon="6.65171">
        <ele>1969.7</ele>
        <time>2022-07-13T11:27:18Z</time>
      </trkpt>
      <trkpt lat="44.22657" lon="6.65179">
        <ele>1971.6</ele>
        <time>2022-07-13T11:27:27Z</time>
      </trkpt>
      <trkpt lat="44.22666" lon="6.65177">
        <ele>1969.1</ele>
        <time>2022-07-13T11:27:38Z</time>
      </trkpt>
      <trkpt lat="44.22675" lon="6.65176">
        <ele>1966.2</ele>
        <time>2022-07-13T11:27:48Z</time>
      </trkpt>
      <trkpt lat="44.22684" lon="6.65171">
        <ele>1962</ele>
        <time>2022-07-13T11:27:57Z</time>
      </trkpt>
      <trkpt lat="44.22693" lon="6.65169">
        <ele>1959.1</ele>
        <time>2022-07-13T11:28:12Z</time>
      </trkpt>
      <trkpt lat="44.22702" lon="6.65166">
        <ele>1956</ele>
        <time>2022-07-13T11:28:27Z</time>
      </trkpt>
      <trkpt lat="44.22712" lon="6.65164">
        <ele>1953.4</ele>
        <time>2022-07-13T11:28:39Z</time>
      </trkpt>
      <trkpt lat="44.22721" lon="6.65161">
        <ele>1950.3</ele>
        <time>2022-07-13T11:28:52Z</time>
      </trkpt>
      <trkpt lat="44.2273" lon="6.65157">
        <ele>1946.3</ele>
        <time>2022-07-13T11:29:05Z</time>
      </trkpt>
      <trkpt lat="44.22739" lon="6.65162">
        <ele>1945.5</ele>
        <time>2022-07-13T11:29:15Z</time>
      </trkpt>
      <trkpt lat="44.22747" lon="6.65157">
        <ele>1941.4</ele>
        <time>2022-07-13T11:29:38Z</time>
      </trkpt>
      <trkpt lat="44.22756" lon="6.65154">
        <ele>1938.3</ele>
        <time>2022-07-13T11:29:50Z</time>
      </trkpt>
      <trkpt lat="44.22765" lon="6.65152">
        <ele>1935.1</ele>
        <time>2022-07-13T11:30:12Z</time>
      </trkpt>
      <trkpt lat="44.22774" lon="6.65147">
        <ele>1931.8</ele>
        <time>2022-07-13T11:30:36Z</time>
      </trkpt>
      <trkpt lat="44.22782" lon="6.65143">
        <ele>1928.7</ele>
        <time>2022-07-13T11:30:55Z</time>
      </trkpt>
      <trkpt lat="44.22787" lon="6.65132">
        <ele>1925.2</ele>
        <time>2022-07-13T11:31:17Z</time>
      </trkpt>
      <trkpt lat="44.22796" lon="6.65138">
        <ele>1924.3</ele>
        <time>2022-07-13T11:31:37Z</time>
      </trkpt>
      <trkpt lat="44.22804" lon="6.65142">
        <ele>1922.8</ele>
        <time>2022-07-13T11:32:17Z</time>
      </trkpt>
      <trkpt lat="44.22811" lon="6.65133">
        <ele>1919.4</ele>
        <time>2022-07-13T11:32:28Z</time>
      </trkpt>
      <trkpt lat="44.2282" lon="6.65131">
        <ele>1916.6</ele>
        <time>2022-07-13T11:32:45Z</time>
      </trkpt>
      <trkpt lat="44.22819" lon="6.65118">
        <ele>1915</ele>
        <time>2022-07-13T11:33:03Z</time>
      </trkpt>
      <trkpt lat="44.22827" lon="6.6511">
        <ele>1912.4</ele>
        <time>2022-07-13T11:33:17Z</time>
      </trkpt>
      <trkpt lat="44.22836" lon="6.65113">
        <ele>1910.5</ele>
        <time>2022-07-13T11:33:25Z</time>
      </trkpt>
      <trkpt lat="44.22843" lon="6.65103">
        <ele>1907.9</ele>
        <time>2022-07-13T11:33:41Z</time>
      </trkpt>
      <trkpt lat="44.22851" lon="6.65096">
        <ele>1905.3</ele>
        <time>2022-07-13T11:33:51Z</time>
      </trkpt>
      <trkpt lat="44.22857" lon="6.65087">
        <ele>1903.2</ele>
        <time>2022-07-13T11:34:03Z</time>
      </trkpt>
      <trkpt lat="44.22859" lon="6.65074">
        <ele>1901.1</ele>
        <time>2022-07-13T11:34:25Z</time>
      </trkpt>
      <trkpt lat="44.22865" lon="6.65063">
        <ele>1898.4</ele>
        <time>2022-07-13T11:34:40Z</time>
      </trkpt>
      <trkpt lat="44.22871" lon="6.65054">
        <ele>1895.9</ele>
        <time>2022-07-13T11:34:49Z</time>
      </trkpt>
      <trkpt lat="44.22879" lon="6.65046">
        <ele>1893.4</ele>
        <time>2022-07-13T11:35:02Z</time>
      </trkpt>
      <trkpt lat="44.22887" lon="6.6504">
        <ele>1891</ele>
        <time>2022-07-13T11:35:11Z</time>
      </trkpt>
      <trkpt lat="44.22892" lon="6.65028">
        <ele>1888.6</ele>
        <time>2022-07-13T11:35:22Z</time>
      </trkpt>
      <trkpt lat="44.2289" lon="6.65015">
        <ele>1887</ele>
        <time>2022-07-13T11:35:33Z</time>
      </trkpt>
      <trkpt lat="44.22899" lon="6.65011">
        <ele>1885</ele>
        <time>2022-07-13T11:35:44Z</time>
      </trkpt>
      <trkpt lat="44.22907" lon="6.65004">
        <ele>1882.8</ele>
        <time>2022-07-13T11:35:54Z</time>
      </trkpt>
      <trkpt lat="44.22914" lon="6.64994">
        <ele>1880.8</ele>
        <time>2022-07-13T11:36:02Z</time>
      </trkpt>
      <trkpt lat="44.22917" lon="6.64983">
        <ele>1879.1</ele>
        <time>2022-07-13T11:36:13Z</time>
      </trkpt>
      <trkpt lat="44.22924" lon="6.64973">
        <ele>1877.3</ele>
        <time>2022-07-13T11:36:25Z</time>
      </trkpt>
      <trkpt lat="44.22927" lon="6.6496">
        <ele>1875.3</ele>
        <time>2022-07-13T11:36:38Z</time>
      </trkpt>
      <trkpt lat="44.22932" lon="6.64949">
        <ele>1873.4</ele>
        <time>2022-07-13T11:36:49Z</time>
      </trkpt>
      <trkpt lat="44.22934" lon="6.64936">
        <ele>1871.6</ele>
        <time>2022-07-13T11:36:59Z</time>
      </trkpt>
      <trkpt lat="44.22939" lon="6.64925">
        <ele>1869.6</ele>
        <time>2022-07-13T11:37:09Z</time>
      </trkpt>
      <trkpt lat="44.22943" lon="6.64914">
        <ele>1867.8</ele>
        <time>2022-07-13T11:37:25Z</time>
      </trkpt>
      <trkpt lat="44.22952" lon="6.6491">
        <ele>1867</ele>
        <time>2022-07-13T11:38:50Z</time>
      </trkpt>
      <trkpt lat="44.22957" lon="6.64899">
        <ele>1865.7</ele>
        <time>2022-07-13T11:39:01Z</time>
      </trkpt>
      <trkpt lat="44.2296" lon="6.64887">
        <ele>1864.2</ele>
        <time>2022-07-13T11:39:12Z</time>
      </trkpt>
      <trkpt lat="44.22967" lon="6.64878">
        <ele>1863</ele>
        <time>2022-07-13T11:39:22Z</time>
      </trkpt>
      <trkpt lat="44.22973" lon="6.64868">
        <ele>1861.8</ele>
        <time>2022-07-13T11:39:32Z</time>
      </trkpt>
      <trkpt lat="44.2298" lon="6.6486">
        <ele>1861.1</ele>
        <time>2022-07-13T11:39:40Z</time>
      </trkpt>
      <trkpt lat="44.22983" lon="6.64846">
        <ele>1859.3</ele>
        <time>2022-07-13T11:39:48Z</time>
      </trkpt>
      <trkpt lat="44.22987" lon="6.64834">
        <ele>1857.7</ele>
        <time>2022-07-13T11:39:58Z</time>
      </trkpt>
      <trkpt lat="44.22991" lon="6.64822">
        <ele>1855.6</ele>
        <time>2022-07-13T11:40:09Z</time>
      </trkpt>
      <trkpt lat="44.22992" lon="6.64809">
        <ele>1853.3</ele>
        <time>2022-07-13T11:40:21Z</time>
      </trkpt>
      <trkpt lat="44.22996" lon="6.64798">
        <ele>1851.5</ele>
        <time>2022-07-13T11:40:33Z</time>
      </trkpt>
      <trkpt lat="44.23002" lon="6.64787">
        <ele>1850</ele>
        <time>2022-07-13T11:40:44Z</time>
      </trkpt>
      <trkpt lat="44.23006" lon="6.64774">
        <ele>1848.6</ele>
        <time>2022-07-13T11:40:56Z</time>
      </trkpt>
      <trkpt lat="44.23012" lon="6.64763">
        <ele>1847.5</ele>
        <time>2022-07-13T11:41:06Z</time>
      </trkpt>
      <trkpt lat="44.23013" lon="6.64749">
        <ele>1845.3</ele>
        <time>2022-07-13T11:41:16Z</time>
      </trkpt>
      <trkpt lat="44.23015" lon="6.64736">
        <ele>1843.5</ele>
        <time>2022-07-13T11:41:25Z</time>
      </trkpt>
      <trkpt lat="44.23018" lon="6.64723">
        <ele>1841.8</ele>
        <time>2022-07-13T11:41:34Z</time>
      </trkpt>
      <trkpt lat="44.23025" lon="6.64714">
        <ele>1840.7</ele>
        <time>2022-07-13T11:41:44Z</time>
      </trkpt>
      <trkpt lat="44.23028" lon="6.64701">
        <ele>1838.9</ele>
        <time>2022-07-13T11:41:56Z</time>
      </trkpt>
      <trkpt lat="44.2302" lon="6.64693">
        <ele>1838.1</ele>
        <time>2022-07-13T11:42:05Z</time>
      </trkpt>
      <trkpt lat="44.23019" lon="6.6468">
        <ele>1837.1</ele>
        <time>2022-07-13T11:42:15Z</time>
      </trkpt>
      <trkpt lat="44.23023" lon="6.64668">
        <ele>1835.7</ele>
        <time>2022-07-13T11:42:24Z</time>
      </trkpt>
      <trkpt lat="44.23026" lon="6.64656">
        <ele>1834.1</ele>
        <time>2022-07-13T11:42:36Z</time>
      </trkpt>
      <trkpt lat="44.23031" lon="6.64645">
        <ele>1832.5</ele>
        <time>2022-07-13T11:42:49Z</time>
      </trkpt>
      <trkpt lat="44.23035" lon="6.64633">
        <ele>1830.8</ele>
        <time>2022-07-13T11:43:01Z</time>
      </trkpt>
      <trkpt lat="44.2304" lon="6.64622">
        <ele>1828.7</ele>
        <time>2022-07-13T11:43:11Z</time>
      </trkpt>
      <trkpt lat="44.23048" lon="6.64613">
        <ele>1826.4</ele>
        <time>2022-07-13T11:43:24Z</time>
      </trkpt>
      <trkpt lat="44.23056" lon="6.64607">
        <ele>1824.4</ele>
        <time>2022-07-13T11:43:32Z</time>
      </trkpt>
      <trkpt lat="44.23064" lon="6.646">
        <ele>1822.7</ele>
        <time>2022-07-13T11:43:41Z</time>
      </trkpt>
      <trkpt lat="44.2307" lon="6.6459">
        <ele>1820.5</ele>
        <time>2022-07-13T11:43:51Z</time>
      </trkpt>
      <trkpt lat="44.23074" lon="6.64577">
        <ele>1817.8</ele>
        <time>2022-07-13T11:44:04Z</time>
      </trkpt>
      <trkpt lat="44.23077" lon="6.64564">
        <ele>1814.7</ele>
        <time>2022-07-13T11:44:16Z</time>
      </trkpt>
      <trkpt lat="44.23073" lon="6.64553">
        <ele>1812.8</ele>
        <time>2022-07-13T11:44:31Z</time>
      </trkpt>
      <trkpt lat="44.23074" lon="6.64539">
        <ele>1809.8</ele>
        <time>2022-07-13T11:44:43Z</time>
      </trkpt>
      <trkpt lat="44.2307" lon="6.64528">
        <ele>1807.9</ele>
        <time>2022-07-13T11:44:56Z</time>
      </trkpt>
      <trkpt lat="44.23061" lon="6.64527">
        <ele>1809.1</ele>
        <time>2022-07-13T11:45:06Z</time>
      </trkpt>
      <trkpt lat="44.23058" lon="6.64515">
        <ele>1807.3</ele>
        <time>2022-07-13T11:45:20Z</time>
      </trkpt>
      <trkpt lat="44.23064" lon="6.64505">
        <ele>1804.5</ele>
        <time>2022-07-13T11:45:28Z</time>
      </trkpt>
      <trkpt lat="44.23071" lon="6.64497">
        <ele>1801.5</ele>
        <time>2022-07-13T11:45:37Z</time>
      </trkpt>
      <trkpt lat="44.23074" lon="6.64485">
        <ele>1798.1</ele>
        <time>2022-07-13T11:45:46Z</time>
      </trkpt>
      <trkpt lat="44.23072" lon="6.64472">
        <ele>1795.3</ele>
        <time>2022-07-13T11:45:58Z</time>
      </trkpt>
      <trkpt lat="44.23068" lon="6.6446">
        <ele>1793.7</ele>
        <time>2022-07-13T11:46:12Z</time>
      </trkpt>
      <trkpt lat="44.23062" lon="6.6445">
        <ele>1792.8</ele>
        <time>2022-07-13T11:46:28Z</time>
      </trkpt>
      <trkpt lat="44.23061" lon="6.64437">
        <ele>1790</ele>
        <time>2022-07-13T11:46:42Z</time>
      </trkpt>
      <trkpt lat="44.2306" lon="6.64424">
        <ele>1787.3</ele>
        <time>2022-07-13T11:46:54Z</time>
      </trkpt>
      <trkpt lat="44.23054" lon="6.64415">
        <ele>1787</ele>
        <time>2022-07-13T11:47:19Z</time>
      </trkpt>
      <trkpt lat="44.23049" lon="6.64404">
        <ele>1785.3</ele>
        <time>2022-07-13T11:48:28Z</time>
      </trkpt>
      <trkpt lat="44.23044" lon="6.64393">
        <ele>1783.1</ele>
        <time>2022-07-13T11:48:41Z</time>
      </trkpt>
      <trkpt lat="44.23038" lon="6.64382">
        <ele>1781.1</ele>
        <time>2022-07-13T11:48:51Z</time>
      </trkpt>
      <trkpt lat="44.23034" lon="6.6437">
        <ele>1777.9</ele>
        <time>2022-07-13T11:49:02Z</time>
      </trkpt>
      <trkpt lat="44.23028" lon="6.64359">
        <ele>1775.2</ele>
        <time>2022-07-13T11:49:09Z</time>
      </trkpt>
      <trkpt lat="44.23023" lon="6.64348">
        <ele>1772.4</ele>
        <time>2022-07-13T11:49:16Z</time>
      </trkpt>
      <trkpt lat="44.23018" lon="6.64336">
        <ele>1768.9</ele>
        <time>2022-07-13T11:49:27Z</time>
      </trkpt>
      <trkpt lat="44.23024" lon="6.64325">
        <ele>1765.7</ele>
        <time>2022-07-13T11:49:37Z</time>
      </trkpt>
      <trkpt lat="44.23031" lon="6.64316">
        <ele>1762.9</ele>
        <time>2022-07-13T11:49:50Z</time>
      </trkpt>
      <trkpt lat="44.2304" lon="6.64313">
        <ele>1761.2</ele>
        <time>2022-07-13T11:50:06Z</time>
      </trkpt>
      <trkpt lat="44.23049" lon="6.6431">
        <ele>1759.9</ele>
        <time>2022-07-13T11:50:16Z</time>
      </trkpt>
      <trkpt lat="44.23058" lon="6.6431">
        <ele>1758.5</ele>
        <time>2022-07-13T11:50:26Z</time>
      </trkpt>
      <trkpt lat="44.23067" lon="6.64308">
        <ele>1755.7</ele>
        <time>2022-07-13T11:50:34Z</time>
      </trkpt>
      <trkpt lat="44.23077" lon="6.64305">
        <ele>1752.6</ele>
        <time>2022-07-13T11:50:43Z</time>
      </trkpt>
      <trkpt lat="44.23074" lon="6.64293">
        <ele>1749.1</ele>
        <time>2022-07-13T11:50:56Z</time>
      </trkpt>
      <trkpt lat="44.23067" lon="6.64285">
        <ele>1748.3</ele>
        <time>2022-07-13T11:51:07Z</time>
      </trkpt>
      <trkpt lat="44.2306" lon="6.64276">
        <ele>1747.1</ele>
        <time>2022-07-13T11:51:18Z</time>
      </trkpt>
      <trkpt lat="44.23055" lon="6.64265">
        <ele>1744.8</ele>
        <time>2022-07-13T11:51:27Z</time>
      </trkpt>
      <trkpt lat="44.23046" lon="6.64258">
        <ele>1743.7</ele>
        <time>2022-07-13T11:51:40Z</time>
      </trkpt>
      <trkpt lat="44.23037" lon="6.64256">
        <ele>1744.1</ele>
        <time>2022-07-13T11:51:53Z</time>
      </trkpt>
      <trkpt lat="44.23028" lon="6.64253">
        <ele>1744.1</ele>
        <time>2022-07-13T11:52:06Z</time>
      </trkpt>
      <trkpt lat="44.2303" lon="6.64241">
        <ele>1740.1</ele>
        <time>2022-07-13T11:52:19Z</time>
      </trkpt>
      <trkpt lat="44.23037" lon="6.64231">
        <ele>1736.8</ele>
        <time>2022-07-13T11:52:33Z</time>
      </trkpt>
      <trkpt lat="44.23043" lon="6.64223">
        <ele>1734</ele>
        <time>2022-07-13T11:52:47Z</time>
      </trkpt>
      <trkpt lat="44.2305" lon="6.64213">
        <ele>1731.1</ele>
        <time>2022-07-13T11:53:03Z</time>
      </trkpt>
      <trkpt lat="44.23057" lon="6.64205">
        <ele>1728.4</ele>
        <time>2022-07-13T11:53:12Z</time>
      </trkpt>
      <trkpt lat="44.23063" lon="6.64194">
        <ele>1724.6</ele>
        <time>2022-07-13T11:53:25Z</time>
      </trkpt>
      <trkpt lat="44.23072" lon="6.64191">
        <ele>1722.3</ele>
        <time>2022-07-13T11:53:35Z</time>
      </trkpt>
      <trkpt lat="44.23082" lon="6.6419">
        <ele>1720.4</ele>
        <time>2022-07-13T11:53:44Z</time>
      </trkpt>
      <trkpt lat="44.23091" lon="6.64194">
        <ele>1719.2</ele>
        <time>2022-07-13T11:53:55Z</time>
      </trkpt>
      <trkpt lat="44.231" lon="6.64197">
        <ele>1717.7</ele>
        <time>2022-07-13T11:54:04Z</time>
      </trkpt>
      <trkpt lat="44.2311" lon="6.642">
        <ele>1716.4</ele>
        <time>2022-07-13T11:54:13Z</time>
      </trkpt>
      <trkpt lat="44.23118" lon="6.64206">
        <ele>1716.2</ele>
        <time>2022-07-13T11:54:48Z</time>
      </trkpt>
      <trkpt lat="44.23127" lon="6.64211">
        <ele>1715.9</ele>
        <time>2022-07-13T11:54:59Z</time>
      </trkpt>
      <trkpt lat="44.23132" lon="6.64221">
        <ele>1716.8</ele>
        <time>2022-07-13T11:55:12Z</time>
      </trkpt>
      <trkpt lat="44.23136" lon="6.64233">
        <ele>1718.7</ele>
        <time>2022-07-13T11:55:23Z</time>
      </trkpt>
      <trkpt lat="44.23145" lon="6.64232">
        <ele>1717.9</ele>
        <time>2022-07-13T11:55:34Z</time>
      </trkpt>
      <trkpt lat="44.23154" lon="6.64228">
        <ele>1716.8</ele>
        <time>2022-07-13T11:55:45Z</time>
      </trkpt>
      <trkpt lat="44.23163" lon="6.64232">
        <ele>1717.2</ele>
        <time>2022-07-13T11:55:57Z</time>
      </trkpt>
      <trkpt lat="44.23171" lon="6.64238">
        <ele>1718.2</ele>
        <time>2022-07-13T11:56:08Z</time>
      </trkpt>
      <trkpt lat="44.23178" lon="6.64246">
        <ele>1719.7</ele>
        <time>2022-07-13T11:56:20Z</time>
      </trkpt>
      <trkpt lat="44.23186" lon="6.64253">
        <ele>1720.9</ele>
        <time>2022-07-13T11:56:46Z</time>
      </trkpt>
      <trkpt lat="44.23191" lon="6.64264">
        <ele>1723.1</ele>
        <time>2022-07-13T11:57:01Z</time>
      </trkpt>
      <trkpt lat="44.23197" lon="6.64275">
        <ele>1725.2</ele>
        <time>2022-07-13T11:57:13Z</time>
      </trkpt>
      <trkpt lat="44.23202" lon="6.64286">
        <ele>1727.3</ele>
        <time>2022-07-13T11:57:26Z</time>
      </trkpt>
      <trkpt lat="44.23205" lon="6.64299">
        <ele>1729.9</ele>
        <time>2022-07-13T11:57:36Z</time>
      </trkpt>
      <trkpt lat="44.23205" lon="6.64312">
        <ele>1732.8</ele>
        <time>2022-07-13T11:57:49Z</time>
      </trkpt>
      <trkpt lat="44.23209" lon="6.64323">
        <ele>1735</ele>
        <time>2022-07-13T11:58:06Z</time>
      </trkpt>
      <trkpt lat="44.23211" lon="6.64335">
        <ele>1737.6</ele>
        <time>2022-07-13T11:58:22Z</time>
      </trkpt>
      <trkpt lat="44.23216" lon="6.64346">
        <ele>1739.5</ele>
        <time>2022-07-13T11:58:39Z</time>
      </trkpt>
      <trkpt lat="44.23221" lon="6.64357">
        <ele>1741.2</ele>
        <time>2022-07-13T11:58:54Z</time>
      </trkpt>
      <trkpt lat="44.23224" lon="6.64369">
        <ele>1743.2</ele>
        <time>2022-07-13T11:59:13Z</time>
      </trkpt>
      <trkpt lat="44.23232" lon="6.64375">
        <ele>1743.2</ele>
        <time>2022-07-13T11:59:28Z</time>
      </trkpt>
      <trkpt lat="44.2324" lon="6.64383">
        <ele>1743.5</ele>
        <time>2022-07-13T11:59:38Z</time>
      </trkpt>
      <trkpt lat="44.23241" lon="6.64396">
        <ele>1745.2</ele>
        <time>2022-07-13T11:59:53Z</time>
      </trkpt>
      <trkpt lat="44.23232" lon="6.64402">
        <ele>1747.4</ele>
        <time>2022-07-13T12:00:26Z</time>
      </trkpt>
      <trkpt lat="44.23236" lon="6.64414">
        <ele>1748.2</ele>
        <time>2022-07-13T12:00:46Z</time>
      </trkpt>
      <trkpt lat="44.23242" lon="6.64424">
        <ele>1748.4</ele>
        <time>2022-07-13T12:01:02Z</time>
      </trkpt>
      <trkpt lat="44.23248" lon="6.64434">
        <ele>1748.2</ele>
        <time>2022-07-13T12:01:11Z</time>
      </trkpt>
      <trkpt lat="44.23254" lon="6.64445">
        <ele>1748.3</ele>
        <time>2022-07-13T12:01:20Z</time>
      </trkpt>
      <trkpt lat="44.23259" lon="6.64456">
        <ele>1748.4</ele>
        <time>2022-07-13T12:01:28Z</time>
      </trkpt>
      <trkpt lat="44.23266" lon="6.64467">
        <ele>1747.9</ele>
        <time>2022-07-13T12:01:37Z</time>
      </trkpt>
      <trkpt lat="44.2327" lon="6.64477">
        <ele>1748.2</ele>
        <time>2022-07-13T12:01:45Z</time>
      </trkpt>
      <trkpt lat="44.23275" lon="6.64489">
        <ele>1749.2</ele>
        <time>2022-07-13T12:01:54Z</time>
      </trkpt>
      <trkpt lat="44.23283" lon="6.64499">
        <ele>1750</ele>
        <time>2022-07-13T12:02:05Z</time>
      </trkpt>
      <trkpt lat="44.23287" lon="6.6451">
        <ele>1752.4</ele>
        <time>2022-07-13T12:02:19Z</time>
      </trkpt>
      <trkpt lat="44.23297" lon="6.64513">
        <ele>1751.8</ele>
        <time>2022-07-13T12:02:37Z</time>
      </trkpt>
      <trkpt lat="44.23305" lon="6.64521">
        <ele>1752.4</ele>
        <time>2022-07-13T12:02:50Z</time>
      </trkpt>
      <trkpt lat="44.23314" lon="6.64523">
        <ele>1751.4</ele>
        <time>2022-07-13T12:03:02Z</time>
      </trkpt>
      <trkpt lat="44.23323" lon="6.6453">
        <ele>1751.3</ele>
        <time>2022-07-13T12:03:14Z</time>
      </trkpt>
      <trkpt lat="44.23331" lon="6.64539">
        <ele>1751.5</ele>
        <time>2022-07-13T12:03:24Z</time>
      </trkpt>
      <trkpt lat="44.23338" lon="6.64548">
        <ele>1751.5</ele>
        <time>2022-07-13T12:03:34Z</time>
      </trkpt>
      <trkpt lat="44.23347" lon="6.64554">
        <ele>1750.7</ele>
        <time>2022-07-13T12:03:41Z</time>
      </trkpt>
      <trkpt lat="44.23354" lon="6.64562">
        <ele>1750.7</ele>
        <time>2022-07-13T12:03:52Z</time>
      </trkpt>
      <trkpt lat="44.23362" lon="6.64568">
        <ele>1749.9</ele>
        <time>2022-07-13T12:04:03Z</time>
      </trkpt>
      <trkpt lat="44.23371" lon="6.64575">
        <ele>1748.8</ele>
        <time>2022-07-13T12:04:15Z</time>
      </trkpt>
      <trkpt lat="44.23379" lon="6.64583">
        <ele>1748</ele>
        <time>2022-07-13T12:04:26Z</time>
      </trkpt>
      <trkpt lat="44.23386" lon="6.64591">
        <ele>1747</ele>
        <time>2022-07-13T12:04:36Z</time>
      </trkpt>
      <trkpt lat="44.23393" lon="6.64601">
        <ele>1746.2</ele>
        <time>2022-07-13T12:04:46Z</time>
      </trkpt>
      <trkpt lat="44.23398" lon="6.6461">
        <ele>1745.1</ele>
        <time>2022-07-13T12:04:55Z</time>
      </trkpt>
      <trkpt lat="44.23407" lon="6.64618">
        <ele>1743.3</ele>
        <time>2022-07-13T12:05:03Z</time>
      </trkpt>
      <trkpt lat="44.23409" lon="6.64631">
        <ele>1744.8</ele>
        <time>2022-07-13T12:05:22Z</time>
      </trkpt>
      <trkpt lat="44.23417" lon="6.64638">
        <ele>1742.8</ele>
        <time>2022-07-13T12:05:31Z</time>
      </trkpt>
      <trkpt lat="44.2342" lon="6.6465">
        <ele>1744.1</ele>
        <time>2022-07-13T12:05:41Z</time>
      </trkpt>
      <trkpt lat="44.23424" lon="6.64663">
        <ele>1745.2</ele>
        <time>2022-07-13T12:05:52Z</time>
      </trkpt>
      <trkpt lat="44.23431" lon="6.64672">
        <ele>1743.5</ele>
        <time>2022-07-13T12:06:03Z</time>
      </trkpt>
      <trkpt lat="44.23438" lon="6.64682">
        <ele>1741.7</ele>
        <time>2022-07-13T12:06:12Z</time>
      </trkpt>
      <trkpt lat="44.23445" lon="6.64692">
        <ele>1739.6</ele>
        <time>2022-07-13T12:06:22Z</time>
      </trkpt>
      <trkpt lat="44.23452" lon="6.647">
        <ele>1737.6</ele>
        <time>2022-07-13T12:06:31Z</time>
      </trkpt>
      <trkpt lat="44.23458" lon="6.6471">
        <ele>1735.9</ele>
        <time>2022-07-13T12:06:41Z</time>
      </trkpt>
      <trkpt lat="44.23462" lon="6.64722">
        <ele>1734.4</ele>
        <time>2022-07-13T12:06:51Z</time>
      </trkpt>
      <trkpt lat="44.23469" lon="6.64731">
        <ele>1731.4</ele>
        <time>2022-07-13T12:07:00Z</time>
      </trkpt>
      <trkpt lat="44.23474" lon="6.64742">
        <ele>1729.3</ele>
        <time>2022-07-13T12:07:10Z</time>
      </trkpt>
      <trkpt lat="44.23483" lon="6.64746">
        <ele>1724.7</ele>
        <time>2022-07-13T12:07:25Z</time>
      </trkpt>
      <trkpt lat="44.23488" lon="6.64757">
        <ele>1719.6</ele>
        <time>2022-07-13T12:07:44Z</time>
      </trkpt>
      <trkpt lat="44.23484" lon="6.64768">
        <ele>1719.3</ele>
        <time>2022-07-13T12:07:53Z</time>
      </trkpt>
      <trkpt lat="44.23493" lon="6.64762">
        <ele>1714.9</ele>
        <time>2022-07-13T12:08:40Z</time>
      </trkpt>
      <trkpt lat="44.23499" lon="6.64753">
        <ele>1714.4</ele>
        <time>2022-07-13T12:08:57Z</time>
      </trkpt>
      <trkpt lat="44.23507" lon="6.64747">
        <ele>1710.6</ele>
        <time>2022-07-13T12:09:14Z</time>
      </trkpt>
      <trkpt lat="44.23513" lon="6.64738">
        <ele>1707.7</ele>
        <time>2022-07-13T12:09:25Z</time>
      </trkpt>
      <trkpt lat="44.2352" lon="6.64728">
        <ele>1704.9</ele>
        <time>2022-07-13T12:09:37Z</time>
      </trkpt>
      <trkpt lat="44.23525" lon="6.64739">
        <ele>1699.3</ele>
        <time>2022-07-13T12:10:08Z</time>
      </trkpt>
      <trkpt lat="44.23528" lon="6.64751">
        <ele>1694.6</ele>
        <time>2022-07-13T12:10:47Z</time>
      </trkpt>
      <trkpt lat="44.23523" lon="6.64762">
        <ele>1693.9</ele>
        <time>2022-07-13T12:10:59Z</time>
      </trkpt>
      <trkpt lat="44.2352" lon="6.64775">
        <ele>1691.1</ele>
        <time>2022-07-13T12:11:10Z</time>
      </trkpt>
      <trkpt lat="44.23516" lon="6.64787">
        <ele>1689</ele>
        <time>2022-07-13T12:11:22Z</time>
      </trkpt>
      <trkpt lat="44.23524" lon="6.64781">
        <ele>1686</ele>
        <time>2022-07-13T12:11:40Z</time>
      </trkpt>
      <trkpt lat="44.23525" lon="6.64793">
        <ele>1680.2</ele>
        <time>2022-07-13T12:12:23Z</time>
      </trkpt>
      <trkpt lat="44.23522" lon="6.64805">
        <ele>1677.3</ele>
        <time>2022-07-13T12:12:39Z</time>
      </trkpt>
      <trkpt lat="44.23518" lon="6.64817">
        <ele>1675.7</ele>
        <time>2022-07-13T12:12:50Z</time>
      </trkpt>
      <trkpt lat="44.23511" lon="6.64826">
        <ele>1677.4</ele>
        <time>2022-07-13T12:13:01Z</time>
      </trkpt>
      <trkpt lat="44.23506" lon="6.64836">
        <ele>1677.7</ele>
        <time>2022-07-13T12:13:36Z</time>
      </trkpt>
      <trkpt lat="44.23514" lon="6.64829">
        <ele>1674.7</ele>
        <time>2022-07-13T12:14:08Z</time>
      </trkpt>
      <trkpt lat="44.23521" lon="6.64822">
        <ele>1671.5</ele>
        <time>2022-07-13T12:14:27Z</time>
      </trkpt>
      <trkpt lat="44.23529" lon="6.64814">
        <ele>1669.3</ele>
        <time>2022-07-13T12:14:46Z</time>
      </trkpt>
      <trkpt lat="44.23538" lon="6.64812">
        <ele>1665.1</ele>
        <time>2022-07-13T12:15:00Z</time>
      </trkpt>
      <trkpt lat="44.23547" lon="6.6481">
        <ele>1660.4</ele>
        <time>2022-07-13T12:15:19Z</time>
      </trkpt>
      <trkpt lat="44.23557" lon="6.64811">
        <ele>1655.5</ele>
        <time>2022-07-13T12:15:34Z</time>
      </trkpt>
      <trkpt lat="44.23562" lon="6.64822">
        <ele>1654.5</ele>
        <time>2022-07-13T12:15:51Z</time>
      </trkpt>
      <trkpt lat="44.23571" lon="6.6482">
        <ele>1653.1</ele>
        <time>2022-07-13T12:16:41Z</time>
      </trkpt>
      <trkpt lat="44.2358" lon="6.64819">
        <ele>1651.6</ele>
        <time>2022-07-13T12:17:01Z</time>
      </trkpt>
      <trkpt lat="44.23581" lon="6.64833">
        <ele>1653.1</ele>
        <time>2022-07-13T12:17:14Z</time>
      </trkpt>
      <trkpt lat="44.23586" lon="6.64843">
        <ele>1656</ele>
        <time>2022-07-13T12:17:36Z</time>
      </trkpt>
      <trkpt lat="44.23586" lon="6.6483">
        <ele>1653.9</ele>
        <time>2022-07-13T12:17:54Z</time>
      </trkpt>
      <trkpt lat="44.23593" lon="6.64838">
        <ele>1658.6</ele>
        <time>2022-07-13T12:18:33Z</time>
      </trkpt>
      <trkpt lat="44.23602" lon="6.64842">
        <ele>1663.6</ele>
        <time>2022-07-13T12:19:31Z</time>
      </trkpt>
      <trkpt lat="44.2361" lon="6.64836">
        <ele>1666.4</ele>
        <time>2022-07-13T12:19:46Z</time>
      </trkpt>
      <trkpt lat="44.23617" lon="6.64827">
        <ele>1666.4</ele>
        <time>2022-07-13T12:19:55Z</time>
      </trkpt>
      <trkpt lat="44.23622" lon="6.64815">
        <ele>1664.9</ele>
        <time>2022-07-13T12:20:16Z</time>
      </trkpt>
      <trkpt lat="44.23629" lon="6.64807">
        <ele>1664.6</ele>
        <time>2022-07-13T12:20:26Z</time>
      </trkpt>
      <trkpt lat="44.23636" lon="6.64797">
        <ele>1664</ele>
        <time>2022-07-13T12:20:36Z</time>
      </trkpt>
      <trkpt lat="44.23643" lon="6.6479">
        <ele>1664.4</ele>
        <time>2022-07-13T12:20:44Z</time>
      </trkpt>
      <trkpt lat="44.23652" lon="6.64786">
        <ele>1666.2</ele>
        <time>2022-07-13T12:21:10Z</time>
      </trkpt>
      <trkpt lat="44.23658" lon="6.64775">
        <ele>1665.9</ele>
        <time>2022-07-13T12:21:22Z</time>
      </trkpt>
      <trkpt lat="44.23662" lon="6.64763">
        <ele>1665.4</ele>
        <time>2022-07-13T12:21:37Z</time>
      </trkpt>
      <trkpt lat="44.23667" lon="6.64753">
        <ele>1665.5</ele>
        <time>2022-07-13T12:21:51Z</time>
      </trkpt>
      <trkpt lat="44.23676" lon="6.64749">
        <ele>1667.8</ele>
        <time>2022-07-13T12:22:07Z</time>
      </trkpt>
      <trkpt lat="44.23679" lon="6.64736">
        <ele>1667.3</ele>
        <time>2022-07-13T12:22:18Z</time>
      </trkpt>
      <trkpt lat="44.23687" lon="6.64728">
        <ele>1668.6</ele>
        <time>2022-07-13T12:22:31Z</time>
      </trkpt>
      <trkpt lat="44.23695" lon="6.64721">
        <ele>1669.9</ele>
        <time>2022-07-13T12:22:41Z</time>
      </trkpt>
      <trkpt lat="44.23704" lon="6.64718">
        <ele>1671.7</ele>
        <time>2022-07-13T12:22:55Z</time>
      </trkpt>
      <trkpt lat="44.23713" lon="6.64714">
        <ele>1673.5</ele>
        <time>2022-07-13T12:23:08Z</time>
      </trkpt>
      <trkpt lat="44.2372" lon="6.64705">
        <ele>1674</ele>
        <time>2022-07-13T12:23:21Z</time>
      </trkpt>
      <trkpt lat="44.23729" lon="6.64708">
        <ele>1676.3</ele>
        <time>2022-07-13T12:23:33Z</time>
      </trkpt>
      <trkpt lat="44.23737" lon="6.64702">
        <ele>1676.8</ele>
        <time>2022-07-13T12:23:43Z</time>
      </trkpt>
      <trkpt lat="44.23746" lon="6.64696">
        <ele>1677.4</ele>
        <time>2022-07-13T12:23:57Z</time>
      </trkpt>
      <trkpt lat="44.23755" lon="6.64694">
        <ele>1678.4</ele>
        <time>2022-07-13T12:24:10Z</time>
      </trkpt>
      <trkpt lat="44.23761" lon="6.64685">
        <ele>1677.2</ele>
        <time>2022-07-13T12:24:20Z</time>
      </trkpt>
      <trkpt lat="44.23768" lon="6.64677">
        <ele>1676.2</ele>
        <time>2022-07-13T12:24:29Z</time>
      </trkpt>
      <trkpt lat="44.23778" lon="6.64672">
        <ele>1676.1</ele>
        <time>2022-07-13T12:24:39Z</time>
      </trkpt>
      <trkpt lat="44.23787" lon="6.64669">
        <ele>1676.2</ele>
        <time>2022-07-13T12:24:48Z</time>
      </trkpt>
      <trkpt lat="44.23796" lon="6.64672">
        <ele>1677.1</ele>
        <time>2022-07-13T12:24:58Z</time>
      </trkpt>
      <trkpt lat="44.23806" lon="6.64669">
        <ele>1677.3</ele>
        <time>2022-07-13T12:25:09Z</time>
      </trkpt>
      <trkpt lat="44.23814" lon="6.64661">
        <ele>1676.6</ele>
        <time>2022-07-13T12:25:19Z</time>
      </trkpt>
      <trkpt lat="44.23819" lon="6.6465">
        <ele>1675.7</ele>
        <time>2022-07-13T12:25:28Z</time>
      </trkpt>
      <trkpt lat="44.23826" lon="6.64639">
        <ele>1675.2</ele>
        <time>2022-07-13T12:25:37Z</time>
      </trkpt>
      <trkpt lat="44.23833" lon="6.6463">
        <ele>1675</ele>
        <time>2022-07-13T12:25:46Z</time>
      </trkpt>
      <trkpt lat="44.2384" lon="6.6462">
        <ele>1674.9</ele>
        <time>2022-07-13T12:25:55Z</time>
      </trkpt>
      <trkpt lat="44.23848" lon="6.64613">
        <ele>1675.2</ele>
        <time>2022-07-13T12:26:04Z</time>
      </trkpt>
      <trkpt lat="44.23855" lon="6.64604">
        <ele>1675.6</ele>
        <time>2022-07-13T12:26:12Z</time>
      </trkpt>
      <trkpt lat="44.23862" lon="6.64596">
        <ele>1676.2</ele>
        <time>2022-07-13T12:26:20Z</time>
      </trkpt>
      <trkpt lat="44.2387" lon="6.64588">
        <ele>1677</ele>
        <time>2022-07-13T12:26:29Z</time>
      </trkpt>
      <trkpt lat="44.23879" lon="6.64582">
        <ele>1678.1</ele>
        <time>2022-07-13T12:26:37Z</time>
      </trkpt>
      <trkpt lat="44.23887" lon="6.64577">
        <ele>1679.2</ele>
        <time>2022-07-13T12:26:47Z</time>
      </trkpt>
      <trkpt lat="44.23895" lon="6.64569">
        <ele>1680</ele>
        <time>2022-07-13T12:26:57Z</time>
      </trkpt>
      <trkpt lat="44.239" lon="6.64559">
        <ele>1679.9</ele>
        <time>2022-07-13T12:27:08Z</time>
      </trkpt>
      <trkpt lat="44.23906" lon="6.64549">
        <ele>1679.8</ele>
        <time>2022-07-13T12:27:19Z</time>
      </trkpt>
      <trkpt lat="44.23915" lon="6.64542">
        <ele>1680.3</ele>
        <time>2022-07-13T12:27:32Z</time>
      </trkpt>
      <trkpt lat="44.23923" lon="6.64535">
        <ele>1680.7</ele>
        <time>2022-07-13T12:27:42Z</time>
      </trkpt>
      <trkpt lat="44.23929" lon="6.64525">
        <ele>1680.5</ele>
        <time>2022-07-13T12:27:51Z</time>
      </trkpt>
      <trkpt lat="44.23933" lon="6.64512">
        <ele>1680.2</ele>
        <time>2022-07-13T12:28:01Z</time>
      </trkpt>
      <trkpt lat="44.23936" lon="6.64499">
        <ele>1679.7</ele>
        <time>2022-07-13T12:28:10Z</time>
      </trkpt>
      <trkpt lat="44.23942" lon="6.6449">
        <ele>1679.9</ele>
        <time>2022-07-13T12:28:18Z</time>
      </trkpt>
      <trkpt lat="44.23941" lon="6.64476">
        <ele>1678.8</ele>
        <time>2022-07-13T12:28:26Z</time>
      </trkpt>
      <trkpt lat="44.23941" lon="6.64463">
        <ele>1677.3</ele>
        <time>2022-07-13T12:28:34Z</time>
      </trkpt>
    </trkseg>
  </trk>
</gpx>